Data for 09/17/2007

Time Sea-Level Adjusted Pressure Absolute Pressure Temperature Relative Humidity Dew Point Precipitation   
(mb) (inHg) (mb) (inHg) (C) (F) (%) (C) (F) (mm) (in)
00:01 1015 29.97 844 24.92 9.3 48.8 55 0.8 33.4 0
00:02 1015 29.97 844 24.92 9.5 49.1 54 0.6 33 0
00:03 1015 29.97 844 24.92 9.7 49.4 52 0.3 32.6 0
00:04 1015 29.97 844 24.92 9.9 49.7 51 0.3 32.6 0
00:05 1015 29.97 844 24.92 10 50 52 0.6 33.2 0
00:06 1015 29.97 844 24.92 9.9 49.9 52 0.7 33.2 0
00:07 1015 29.97 844 24.92 9.8 49.7 52 0.5 33 0
00:08 1015 29.97 844 24.92 9.8 49.6 52 0.5 32.8 0
00:09 1015 29.97 844 24.92 9.8 49.6 51 0.2 32.4 0
00:10 1015 29.97 844 24.92 9.9 49.9 51 0.2 32.3 0
00:11 1015 29.97 844 24.92 10 50 50 0.2 32.3 0
00:12 1015 29.97 844 24.92 10 49.9 50 0.2 32.3 0
00:13 1015 29.97 844 24.92 10 50 50 0 32 0
00:14 1015 29.97 844 24.92 10.1 50.1 50 0.1 32.2 0
00:15 1015 29.97 844 24.92 10.1 50.1 51 0.3 32.6 0
00:16 1015 29.97 844 24.92 9.9 49.8 52 0.5 32.9 0
00:17 1015 29.97 844 24.92 9.6 49.3 53 0.5 33 0
00:18 1015 29.97 844 24.92 9.4 48.8 53 0.4 32.7 0
00:19 1015 29.97 844 24.92 9.2 48.6 53 0.3 32.5 0
00:20 1015 29.97 844 24.92 9.2 48.5 53 0.2 32.4 0
00:21 1015 29.97 844 24.92 9.2 48.6 54 0.3 32.6 0
00:22 1015 29.97 844 24.92 9.2 48.6 53 0.2 32.3 0
00:23 1015 29.97 844 24.92 9.5 49 51 -0 31.9 0
00:24 1015 29.97 844 24.92 9.7 49.4 52 0.3 32.6 0
00:25 1015 29.97 844 24.92 9.5 49 53 0.3 32.6 0
00:26 1015 29.97 844 24.92 9.3 48.8 53 0.3 32.5 0
00:27 1015 29.97 844 24.92 9.2 48.6 53 0.2 32.3 0
00:28 1015 29.97 844 24.92 9.5 49 51 -0.1 31.8 0
00:29 1015 29.97 844 24.92 9.8 49.6 51 0.1 32.2 0
00:30 1015 29.97 844 24.92 9.8 49.6 52 0.3 32.6 0
00:31 1015 29.97 845 24.95 9.7 49.4 52 0.4 32.7 0
00:32 1015 29.97 844 24.92 9.5 49.1 53 0.5 32.9 0
00:33 1015 29.97 844 24.92 9.4 48.8 55 0.7 33.3 0
00:34 1015 29.97 844 24.92 9.2 48.5 55 0.7 33.3 0
00:35 1015 29.97 844 24.92 9.1 48.4 52 -0.2 31.6 0
00:36 1015 29.97 845 24.95 9.5 49.2 50 -0.4 31.2 0
00:37 1015 29.97 845 24.95 10.1 50.2 47 -0.8 30.6 0
00:38 1015 29.97 845 24.95 10.7 51.2 45 -0.7 30.7 0
00:39 1015 29.97 845 24.95 10.9 51.6 46 -0.3 31.4 0
00:40 1015 29.97 845 24.95 11 51.7 47 0 32 0
00:41 1015 29.97 845 24.95 10.8 51.4 48 0.3 32.5 0
00:42 1015 29.97 845 24.95 10.5 50.9 49 0.2 32.4 0
00:43 1015 29.97 845 24.95 10.2 50.4 50 0.4 32.7 0
00:44 1015 29.97 845 24.95 9.9 49.9 51 0.3 32.5 0
00:45 1015 29.97 845 24.95 9.8 49.6 51 0.2 32.3 0
00:46 1015 29.97 845 24.95 9.6 49.4 51 -0 31.9 0
00:47 1016 30 845 24.95 9.6 49.2 52 0.1 32.3 0
00:48 1016 30 845 24.95 9.4 48.9 54 0.5 32.9 0
00:49 1016 30 845 24.95 9.1 48.3 55 0.6 33 0
00:50 1016 30 845 24.95 8.7 47.6 56 0.4 32.7 0
00:51 1016 30 845 24.95 8.5 47.2 56 0.2 32.4 0
00:52 1016 30 845 24.95 8.4 47.1 56 0.1 32.1 0
00:53 1016 30 845 24.95 8.4 47.1 56 0.1 32.2 0
00:54 1016 30 845 24.95 8.4 47.1 56 0.2 32.3 0
00:55 1016 30 845 24.95 8.4 47.1 55 -0 32 0
00:56 1016 30 845 24.95 8.5 47.3 55 0 32 0
00:57 1016 30 845 24.95 8.5 47.3 56 0.2 32.3 0
00:58 1016 30 845 24.95 8.4 47.2 56 0.3 32.5 0
00:59 1016 30 845 24.95 8.2 46.8 58 0.4 32.7 0
01:00 1016 30 845 24.95 7.9 46.2 59 0.3 32.6 0
01:01 1016 30 845 24.95 7.6 45.7 60 0.3 32.5 0
01:02 1016 30 845 24.95 7.3 45.2 60 0.2 32.3 0
01:03 1016 30 845 24.95 7.2 45 60 0.1 32.1 0
01:04 1016 30 845 24.95 7.3 45.1 61 0.2 32.3 0
01:05 1016 30 845 24.95 7.4 45.3 60 0.2 32.4 0
01:06 1016 30 845 24.95 7.5 45.5 60 0.2 32.3 0
01:07 1016 30 845 24.95 7.6 45.7 59 0.2 32.4 0
01:08 1016 30 845 24.95 7.7 45.8 59 0.2 32.3 0
01:09 1016 30 845 24.95 7.8 46 59 0.3 32.5 0
01:10 1016 30 845 24.95 7.7 45.9 60 0.4 32.7 0
01:11 1016 30 845 24.95 7.7 45.8 60 0.3 32.6 0
01:12 1016 30 845 24.95 7.6 45.8 60 0.4 32.8 0
01:13 1016 30 845 24.95 7.6 45.6 61 0.5 32.9 0
01:14 1016 30 845 24.95 7.4 45.4 62 0.6 33 0
01:15 1016 30 845 24.95 7.3 45.2 62 0.4 32.8 0
01:16 1016 30 845 24.95 7.3 45.2 61 0.3 32.5 0
01:17 1016 30 845 24.95 7.5 45.4 60 0.2 32.4 0
01:18 1016 30 845 24.95 7.6 45.6 60 0.3 32.5 0
01:19 1016 30 845 24.95 7.7 45.8 60 0.3 32.6 0
01:20 1016 30 845 24.95 7.7 45.9 59 0.3 32.6 0
01:21 1016 30 845 24.95 7.7 45.9 60 0.4 32.6 0
01:22 1016 30 845 24.95 7.7 45.8 59 0.3 32.5 0
01:23 1016 30 845 24.95 7.8 46 59 0.2 32.4 0
01:24 1016 30 845 24.95 7.8 46.1 58 0.1 32.2 0
01:25 1016 30 845 24.95 7.9 46.1 58 0.1 32.2 0
01:26 1016 30 845 24.95 7.9 46.3 57 0.1 32.1 0
01:27 1016 30 845 24.95 8.1 46.5 57 0.1 32.1 0
01:28 1016 30 845 24.95 8.1 46.7 57 0.1 32.1 0
01:29 1016 30 845 24.95 8.2 46.8 56 0.1 32.1 0
01:30 1016 30 845 24.95 8.3 46.9 56 0.1 32.1 0
01:31 1016 30 845 24.95 8.3 47 56 0.1 32.2 0
01:32 1016 30 845 24.95 8.4 47.1 56 0.1 32.3 0
01:33 1016 30 845 24.95 8.4 47.1 56 0.2 32.4 0
01:34 1016 30 845 24.95 8.3 47 56 0.1 32.2 0
01:35 1016 30 845 24.95 8.4 47.1 56 0.1 32.2 0
01:36 1016 30 845 24.95 8.4 47.2 56 0.2 32.3 0
01:37 1016 30 845 24.95 8.4 47.2 56 0.1 32.2 0
01:38 1016 30 845 24.95 8.4 47.2 56 0.1 32.2 0
01:39 1016 30 845 24.95 8.5 47.2 56 0.2 32.3 0
01:40 1016 30 845 24.95 8.4 47.2 56 0.1 32.2 0
01:41 1016 30 845 24.95 8.4 47.2 55 0 32.1 0
01:42 1016 30 845 24.95 8.5 47.3 56 0.1 32.3 0
01:43 1016 30 845 24.95 8.4 47.2 56 0.2 32.3 0
01:44 1016 30 845 24.95 8.4 47.1 56 0.2 32.3 0
01:45 1016 30 845 24.95 8.3 47 56 0.1 32.2 0
01:46 1016 30 845 24.95 8.2 46.8 56 0 32 0
01:47 1016 30 845 24.95 8.2 46.7 56 -0 31.9 0
01:48 1016 30 845 24.95 8.3 46.9 55 -0.2 31.7 0
01:49 1016 30 845 24.95 8.4 47.1 54 -0.3 31.5 0
01:50 1016 30 845 24.95 8.6 47.5 54 -0.2 31.6 0
01:51 1016 30 845 24.95 8.7 47.6 54 -0.2 31.7 0
01:52 1016 30 845 24.95 8.6 47.5 54 -0.2 31.7 0
01:53 1016 30 845 24.95 8.6 47.4 54 -0.2 31.7 0
01:54 1016 30 845 24.95 8.6 47.5 54 -0.2 31.6 0
01:55 1016 30 845 24.95 8.7 47.6 54 -0.1 31.8 0
01:56 1016 30 845 24.95 8.6 47.5 54 -0.2 31.7 0
01:57 1016 30 845 24.95 8.7 47.6 53 -0.3 31.5 0
01:58 1016 30 845 24.95 8.8 47.8 53 -0.3 31.5 0
01:59 1016 30 845 24.95 8.9 47.9 53 -0.2 31.7 0
02:00 1016 30 845 24.95 8.9 48 53 -0.2 31.6 0
02:01 1016 30 845 24.95 8.8 47.9 54 0 32 0
02:02 1016 30 845 24.95 8.7 47.7 53 -0.3 31.5 0
02:03 1016 30 845 24.95 8.7 47.7 54 -0.1 31.8 0
02:04 1016 30 845 24.95 8.7 47.6 54 -0.1 31.9 0
02:05 1016 30 845 24.95 8.6 47.4 55 -0 31.9 0
02:06 1016 30 845 24.95 8.6 47.4 55 -0 32 0
02:07 1016 30 845 24.95 8.4 47.1 55 -0 32 0
02:08 1016 30 845 24.95 8.3 46.9 55 -0.2 31.7 0
02:09 1016 30 845 24.95 8.3 47 55 -0.2 31.7 0
02:10 1016 30 845 24.95 8.3 46.9 56 0.1 32.2 0
02:11 1016 30 845 24.95 8 46.4 58 0.2 32.4 0
02:12 1016 30 845 24.95 7.7 45.9 59 0.2 32.4 0
02:13 1016 30 845 24.95 7.4 45.4 60 0.2 32.4 0
02:14 1016 30 845 24.95 7.2 44.9 60 0 32 0
02:15 1016 30 845 24.95 7.1 44.8 59 -0.3 31.5 0
02:16 1016 30 845 24.95 7.2 44.9 59 -0.3 31.4 0
02:17 1016 30 845 24.95 7.2 45 59 -0.2 31.7 0
02:18 1016 30 845 24.95 7.1 44.7 60 -0.2 31.7 0
02:19 1016 30 845 24.95 7 44.6 60 -0.2 31.7 0
02:20 1016 30 845 24.95 7 44.5 60 -0.2 31.6 0
02:21 1016 30 845 24.95 6.9 44.5 60 -0.3 31.4 0
02:22 1016 30 845 24.95 7 44.6 60 -0.3 31.5 0
02:23 1016 30 845 24.95 7 44.6 59 -0.4 31.3 0
02:24 1016 30 845 24.95 7.1 44.9 59 -0.4 31.4 0
02:25 1016 30 845 24.95 7.2 45 58 -0.3 31.4 0
02:26 1016 30 845 24.95 7.3 45.2 58 -0.3 31.4 0
02:27 1016 30 845 24.95 7.4 45.3 58 -0.3 31.5 0
02:28 1016 30 845 24.95 7.5 45.4 58 -0.3 31.4 0
02:29 1016 30 845 24.95 7.5 45.5 58 -0.3 31.5 0
02:30 1016 30 845 24.95 7.5 45.6 58 -0.2 31.6 0
02:31 1016 30 845 24.95 7.6 45.7 57 -0.3 31.5 0
02:32 1016 30 845 24.95 7.7 45.8 57 -0.3 31.5 0
02:33 1016 30 845 24.95 7.8 46 57 -0.2 31.6 0
02:34 1016 30 845 24.95 7.8 46.1 56 -0.4 31.3 0
02:35 1016 30 845 24.95 8 46.3 56 -0.3 31.4 0
02:36 1016 30 845 24.95 8 46.4 55 -0.4 31.3 0
02:37 1016 30 845 24.95 8.1 46.6 55 -0.3 31.4 0
02:38 1016 30 845 24.95 8.2 46.7 55 -0.3 31.4 0
02:39 1016 30 845 24.95 8.2 46.8 55 -0.3 31.4 0
02:40 1016 30 845 24.95 8.3 46.9 55 -0.2 31.6 0
02:41 1016 30 845 24.95 8.3 46.9 55 -0.3 31.5 0
02:42 1016 30 845 24.95 8.3 46.9 55 -0.1 31.9 0
02:43 1016 30 845 24.95 8.2 46.8 55 -0.2 31.7 0
02:44 1016 30 845 24.95 8.2 46.8 55 -0.2 31.7 0
02:45 1016 30 845 24.95 8.2 46.8 55 -0.2 31.7 0
02:46 1016 30 845 24.95 8.2 46.7 56 -0.1 31.8 0
02:47 1016 30 845 24.95 8.1 46.6 56 -0 31.9 0
02:48 1016 30 845 24.95 8 46.5 57 -0 32 0
02:49 1016 30 845 24.95 8 46.3 58 0.2 32.3 0
02:50 1016 30 845 24.95 7.8 46 58 0.1 32.3 0
02:51 1016 30 845 24.95 7.7 45.8 58 0 32 0
02:52 1016 30 845 24.95 7.6 45.8 59 0.1 32.2 0
02:53 1016 30 845 24.95 7.5 45.5 60 0.3 32.5 0
02:54 1016 30 845 24.95 7.3 45.1 60 0.1 32.2 0
02:55 1016 30 845 24.95 7.2 44.9 60 0 32 0
02:56 1016 30 845 24.95 7.2 44.9 60 -0.1 31.8 0
02:57 1016 30 845 24.95 7.1 44.9 59 -0.2 31.6 0
02:58 1016 30 845 24.95 7.2 45 59 -0.3 31.5 0
02:59 1016 30 845 24.95 7.2 44.9 59 -0.3 31.5 0
03:00 1016 30 845 24.95 7.2 45 59 -0.2 31.7 0
03:01 1016 30 845 24.95 7.2 45 59 -0.2 31.7 0
03:02 1015 29.97 845 24.95 7.2 45 59 -0.3 31.5 0
03:03 1015 29.97 845 24.95 7.4 45.2 58 -0.2 31.6 0
03:04 1015 29.97 845 24.95 7.4 45.3 58 -0.2 31.6 0
03:05 1015 29.97 845 24.95 7.5 45.5 58 -0.2 31.6 0
03:06 1015 29.97 845 24.95 7.6 45.6 58 -0.2 31.6 0
03:07 1015 29.97 845 24.95 7.5 45.5 58 -0.2 31.7 0
03:08 1015 29.97 845 24.95 7.4 45.4 59 -0.2 31.7 0
03:09 1015 29.97 845 24.95 7.2 45 60 0 32 0
03:10 1015 29.97 845 24.95 6.9 44.4 62 0.1 32.3 0
03:11 1015 29.97 845 24.95 6.4 43.5 64 0 32.1 0
03:12 1015 29.97 845 24.95 6 42.8 65 -0.1 31.8 0
03:13 1015 29.97 845 24.95 5.8 42.4 65 -0.3 31.4 0
03:14 1016 30 845 24.95 5.7 42.3 65 -0.4 31.3 0
03:15 1016 30 845 24.95 5.8 42.4 64 -0.4 31.2 0
03:16 1016 30 845 24.95 5.8 42.4 64 -0.4 31.2 0
03:17 1016 30 845 24.95 5.8 42.4 64 -0.5 31.1 0
03:18 1016 30 845 24.95 5.9 42.6 63 -0.6 30.9 0
03:19 1016 30 845 24.95 6.1 42.9 62 -0.7 30.8 0
03:20 1016 30 845 24.95 6.2 43.2 61 -0.7 30.8 0
03:21 1016 30 845 24.95 6.3 43.4 61 -0.5 31 0
03:22 1016 30 845 24.95 6.3 43.3 62 -0.5 31.1 0
03:23 1016 30 845 24.95 6.1 43 63 -0.4 31.3 0
03:24 1016 30 845 24.95 5.9 42.5 64 -0.4 31.3 0
03:25 1016 30 845 24.95 5.6 42.2 65 -0.4 31.3 0
03:26 1016 30 845 24.95 5.6 42.1 65 -0.5 31 0
03:27 1016 30 845 24.95 5.7 42.2 64 -0.5 31.1 0
03:28 1016 30 845 24.95 5.6 42.2 64 -0.6 30.9 0
03:29 1016 30 845 24.95 5.6 42 64 -0.6 30.9 0
03:30 1016 30 845 24.95 5.6 42 64 -0.7 30.8 0
03:31 1016 30 845 24.95 5.5 41.9 65 -0.6 30.9 0
03:32 1016 30 845 24.95 5.4 41.7 65 -0.7 30.7 0
03:33 1016 30 845 24.95 5.3 41.6 65 -0.7 30.8 0
03:34 1016 30 845 24.95 5.1 41.3 66 -0.7 30.7 0
03:35 1016 30 845 24.95 5.1 41.1 66 -0.6 30.8 0
03:36 1016 30 845 24.95 4.9 40.9 68 -0.6 31 0
03:37 1016 30 845 24.95 4.8 40.6 69 -0.5 31.1 0
03:38 1016 30 845 24.95 4.7 40.5 69 -0.4 31.3 0
03:39 1016 30 845 24.95 4.7 40.5 69 -0.4 31.3 0
03:40 1016 30 845 24.95 4.8 40.6 69 -0.4 31.3 0
03:41 1016 30 845 24.95 4.8 40.6 69 -0.4 31.3 0
03:42 1016 30 845 24.95 4.9 40.8 69 -0.3 31.4 0
03:43 1016 30 845 24.95 4.9 40.9 69 -0.4 31.3 0
03:44 1016 30 845 24.95 5 41 68 -0.4 31.3 0
03:45 1016 30 845 24.95 5.1 41.1 68 -0.4 31.2 0
03:46 1016 30 845 24.95 5.1 41.2 67 -0.4 31.2 0
03:47 1016 30 845 24.95 5.2 41.4 67 -0.4 31.2 0
03:48 1016 30 845 24.95 5.3 41.5 67 -0.4 31.3 0
03:49 1016 30 845 24.95 5.4 41.7 67 -0.3 31.5 0
03:50 1016 30 845 24.95 5.5 41.9 67 -0.2 31.6 0
03:51 1016 30 845 24.95 5.6 42 67 -0.1 31.8 0
03:52 1016 30 845 24.95 5.6 42.1 67 -0 32 0
03:53 1016 30 845 24.95 5.5 42 68 0.1 32.1 0
03:54 1016 30 845 24.95 5.5 41.9 68 0.1 32.3 0
03:55 1016 30 845 24.95 5.4 41.8 69 0.2 32.4 0
03:56 1016 30 845 24.95 5.3 41.6 69 0.1 32.3 0
03:57 1016 30 845 24.95 5.3 41.6 68 -0.1 31.9 0
03:58 1016 30 845 24.95 5.4 41.7 69 0.1 32.2 0
03:59 1016 30 845 24.95 5.5 41.9 68 -0 31.9 0
04:00 1016 30 845 24.95 5.5 42 68 0 32 0
04:01 1016 30 845 24.95 5.6 42 68 0 32.1 0
04:02 1016 30 845 24.95 5.6 42.1 67 0 32.1 0
04:03 1016 30 845 24.95 5.7 42.3 67 0.1 32.1 0
04:04 1016 30 845 24.95 5.7 42.3 67 0 32 0
04:05 1016 30 845 24.95 5.8 42.5 66 -0.1 31.9 0
04:06 1016 30 845 24.95 5.8 42.5 66 -0.1 31.8 0
04:07 1016 30 845 24.95 5.9 42.6 65 -0.1 31.9 0
04:08 1016 30 845 24.95 6 42.7 65 -0.2 31.7 0
04:09 1016 30 845 24.95 6.1 42.9 64 -0.2 31.6 0
04:10 1016 30 845 24.95 6.2 43.2 63 -0.2 31.6 0
04:11 1016 30 845 24.95 6.3 43.3 63 -0.3 31.4 0
04:12 1016 30 845 24.95 6.4 43.5 63 -0.2 31.6 0
04:13 1016 30 845 24.95 6.4 43.6 63 -0.1 31.8 0
04:14 1016 30 845 24.95 6.4 43.6 63 -0.1 31.8 0
04:15 1016 30 845 24.95 6.4 43.6 63 -0 32 0
04:16 1016 30 845 24.95 6.4 43.6 63 0 32 0
04:17 1016 30 845 24.95 6.4 43.6 63 -0.1 31.9 0
04:18 1016 30 845 24.95 6.5 43.7 62 -0.3 31.5 0
04:19 1016 30 845 24.95 6.7 44 60 -0.5 31.2 0
04:20 1016 30 845 24.95 6.9 44.4 59 -0.5 31.1 0
04:21 1016 30 845 24.95 7.1 44.8 59 -0.3 31.5 0
04:22 1016 30 845 24.95 7.1 44.7 60 -0.2 31.7 0
04:23 1016 30 845 24.95 6.9 44.5 60 -0.2 31.7 0
04:24 1016 30 845 24.95 6.9 44.4 61 -0.2 31.6 0
04:25 1016 30 845 24.95 6.7 44.1 62 -0.1 31.8 0
04:26 1016 30 845 24.95 6.5 43.7 62 -0.3 31.4 0
04:27 1016 30 845 24.95 6.5 43.7 62 -0.2 31.6 0
04:28 1016 30 845 24.95 6.4 43.5 62 -0.3 31.4 0
04:29 1016 30 845 24.95 6.3 43.4 63 -0.3 31.5 0
04:30 1016 30 845 24.95 6.2 43.1 63 -0.2 31.6 0
04:31 1016 30 845 24.95 6 42.8 64 -0.3 31.4 0
04:32 1016 30 845 24.95 6 42.7 63 -0.4 31.2 0
04:33 1016 30 845 24.95 6 42.9 63 -0.5 31.1 0
04:34 1016 30 845 24.95 6.1 43 62 -0.5 31 0
04:35 1016 30 845 24.95 6.2 43.2 62 -0.5 31.1 0
04:36 1016 30 845 24.95 6.2 43.2 62 -0.5 31.1 0
04:37 1016 30 845 24.95 6.3 43.3 62 -0.5 31.1 0
04:38 1016 30 845 24.95 6.3 43.3 62 -0.4 31.2 0
04:39 1016 30 845 24.95 6.2 43.2 62 -0.5 31.1 0
04:40 1016 30 845 24.95 6.2 43.2 62 -0.5 31.1 0
04:41 1016 30 845 24.95 6.2 43.1 62 -0.5 31.2 0
04:42 1016 30 845 24.95 6.1 43 63 -0.4 31.3 0
04:43 1016 30 845 24.95 6 42.9 63 -0.4 31.3 0
04:44 1016 30 845 24.95 6 42.7 63 -0.5 31.2 0
04:45 1016 30 845 24.95 5.9 42.6 64 -0.4 31.3 0
04:46 1016 30 845 24.95 5.9 42.6 64 -0.5 31.1 0
04:47 1016 30 845 24.95 6 42.7 63 -0.6 30.9 0
04:48 1016 30 845 24.95 6.1 43 63 -0.4 31.2 0
04:49 1016 30 845 24.95 6.1 43.1 62 -0.5 31.1 0
04:50 1016 30 845 24.95 6.2 43.2 62 -0.4 31.2 0
04:51 1016 30 845 24.95 6.3 43.3 61 -0.6 30.9 0
04:52 1016 30 845 24.95 6.5 43.7 59 -0.8 30.5 0
04:53 1016 30 845 24.95 6.8 44.3 58 -0.9 30.4 0
04:54 1016 30 845 24.95 7.1 44.7 57 -0.8 30.6 0
04:55 1016 30 845 24.95 7.2 45 57 -0.6 30.9 0
04:56 1016 30 845 24.95 7.2 44.9 58 -0.6 30.9 0
04:57 1016 30 845 24.95 7.1 44.9 58 -0.6 30.9 0
04:58 1016 30 845 24.95 7.1 44.8 58 -0.7 30.8 0
04:59 1016 30 845 24.95 7.1 44.8 57 -0.7 30.7 0
05:00 1016 30 845 24.95 7.2 44.9 57 -0.7 30.8 0
05:01 1016 30 845 24.95 7.2 44.9 58 -0.6 30.9 0
05:02 1016 30 845 24.95 7.1 44.7 58 -0.7 30.8 0
05:03 1016 30 845 24.95 7 44.6 58 -0.6 30.9 0
05:04 1016 30 845 24.95 6.8 44.3 59 -0.6 30.9 0
05:05 1016 30 845 24.95 6.7 44.1 59 -0.6 30.9 0
05:06 1016 30 845 24.95 6.6 43.9 60 -0.6 30.9 0
05:07 1016 30 845 24.95 6.5 43.7 61 -0.5 31 0
05:08 1016 30 845 24.95 6.3 43.3 62 -0.5 31.1 0
05:09 1016 30 845 24.95 6 42.8 63 -0.6 31 0
05:10 1016 30 845 24.95 5.9 42.6 63 -0.6 30.9 0
05:11 1016 30 845 24.95 5.8 42.4 63 -0.6 30.9 0
05:12 1016 30 845 24.95 5.6 42.1 64 -0.6 30.9 0
05:13 1016 30 845 24.95 5.3 41.5 66 -0.6 30.9 0
05:14 1016 30 845 24.95 4.9 40.9 67 -0.6 30.9 0
05:15 1016 30 845 24.95 4.5 40 69 -0.7 30.8 0
05:16 1016 30 845 24.95 4.2 39.6 71 -0.6 30.8 0
05:17 1016 30 845 24.95 4.1 39.4 71 -0.6 30.9 0
05:18 1016 30 845 24.95 4.3 39.7 70 -0.7 30.8 0
05:19 1016 30 845 24.95 4.6 40.3 69 -0.7 30.8 0
05:20 1016 30 845 24.95 4.8 40.6 68 -0.6 30.9 0
05:21 1016 30 845 24.95 4.8 40.7 67 -0.7 30.8 0
05:22 1016 30 845 24.95 5 41 67 -0.6 30.8 0
05:23 1016 30 845 24.95 5.1 41.1 67 -0.6 31 0
05:24 1016 30 845 24.95 5.1 41.2 67 -0.6 31 0
05:25 1016 30 845 24.95 5.2 41.3 67 -0.6 31 0
05:26 1016 30 845 24.95 5.1 41.2 67 -0.6 30.9 0
05:27 1016 30 845 24.95 5.1 41.2 66 -0.6 30.9 0
05:28 1016 30 845 24.95 5.1 41.3 66 -0.7 30.8 0
05:29 1016 30 845 24.95 5.2 41.3 66 -0.7 30.8 0
05:30 1016 30 845 24.95 5.2 41.4 65 -0.7 30.7 0
05:31 1016 30 845 24.95 5.4 41.6 65 -0.7 30.7 0
05:32 1016 30 845 24.95 5.3 41.6 65 -0.8 30.6 0
05:33 1016 30 845 24.95 5.3 41.5 65 -0.8 30.6 0
05:34 1016 30 845 24.95 5.3 41.5 65 -0.8 30.5 0
05:35 1016 30 845 24.95 5 41 66 -0.8 30.5 0
05:36 1016 30 845 24.95 4.7 40.4 67 -0.8 30.5 0
05:37 1016 30 845 24.95 4.4 39.9 68 -0.9 30.4 0
05:38 1016 30 845 24.95 4.1 39.4 69 -1 30.3 0
05:39 1016 30 845 24.95 3.9 39.1 70 -1.1 30.1 0
05:40 1016 30 845 24.95 3.8 38.9 70 -1.1 30 0
05:41 1016 30 845 24.95 3.7 38.6 70 -1.2 29.9 0
05:42 1016 30 845 24.95 3.6 38.5 71 -1.2 29.9 0
05:43 1016 30 845 24.95 3.6 38.4 71 -1.2 29.8 0
05:44 1016 30 845 24.95 3.5 38.3 71 -1.2 29.8 0
05:45 1016 30 845 24.95 3.3 38 72 -1.2 29.9 0
05:46 1016 30 845 24.95 3.1 37.5 73 -1.2 29.8 0
05:47 1016 30 845 24.95 2.8 37 75 -1.2 29.9 0
05:48 1016 30 845 24.95 2.5 36.4 77 -1.1 29.9 0
05:49 1016 30 845 24.95 2.2 36 79 -1.1 30.1 0
05:50 1016 30 845 24.95 2 35.6 81 -1 30.3 0
05:51 1016 30 845 24.95 1.9 35.4 81 -1 30.2 0
05:52 1016 30 845 24.95 1.9 35.4 82 -0.9 30.4 0
05:53 1016 30 845 24.95 1.9 35.5 81 -0.9 30.3 0
05:54 1016 30 845 24.95 2 35.7 81 -0.9 30.4 0
05:55 1016 30 845 24.95 2.2 36 80 -0.9 30.5 0
05:56 1016 30 845 24.95 2.5 36.5 79 -0.9 30.4 0
05:57 1016 30 845 24.95 2.9 37.2 77 -0.8 30.5 0
05:58 1016 30 845 24.95 3 37.4 76 -0.8 30.5 0
05:59 1016 30 845 24.95 3.2 37.8 75 -0.8 30.6 0
06:00 1016 30 845 24.95 3.3 38 74 -0.8 30.6 0
06:01 1016 30 845 24.95 3.5 38.3 74 -0.7 30.7 0
06:02 1016 30 845 24.95 3.6 38.5 73 -0.7 30.7 0
06:03 1016 30 845 24.95 3.8 38.8 72 -0.8 30.6 0
06:04 1016 30 845 24.95 3.9 39.1 71 -0.8 30.6 0
06:05 1016 30 845 24.95 4 39.3 71 -0.8 30.6 0
06:06 1016 30 845 24.95 4.1 39.4 71 -0.7 30.7 0
06:07 1016 30 845 24.95 4.1 39.4 70 -0.8 30.6 0
06:08 1016 30 845 24.95 4.1 39.3 70 -0.9 30.5 0
06:09 1016 30 845 24.95 4.1 39.3 70 -0.8 30.5 0
06:10 1016 30 845 24.95 4 39.3 70 -0.9 30.4 0
06:11 1016 30 845 24.95 4.1 39.5 70 -0.9 30.4 0
06:12 1016 30 845 24.95 4.2 39.5 70 -0.8 30.5 0
06:13 1016 30 845 24.95 4 39.2 71 -0.8 30.5 0
06:14 1016 30 845 24.95 3.7 38.7 72 -0.9 30.4 0
06:15 1016 30 845 24.95 3.5 38.2 73 -0.9 30.3 0
06:16 1016 30 845 24.95 3.2 37.8 74 -1 30.3 0
06:17 1016 30 845 24.95 3 37.4 75 -1.1 30.1 0
06:18 1016 30 845 24.95 2.7 36.9 76 -1.1 30 0
06:19 1016 30 845 24.95 2.5 36.5 77 -1.1 30 0
06:20 1016 30 845 24.95 2.4 36.3 78 -1.1 30 0
06:21 1016 30 845 24.95 2.3 36.2 78 -1.1 30.1 0
06:22 1016 30 845 24.95 2.3 36.2 78 -1.1 30.1 0
06:23 1016 30 845 24.95 2.3 36.2 78 -1.1 30 0
06:24 1016 30 845 24.95 2.4 36.3 78 -1 30.2 0
06:25 1016 30 845 24.95 2.4 36.4 78 -1.1 30.1 0
06:26 1016 30 845 24.95 2.5 36.4 78 -1.1 30.1 0
06:27 1016 30 845 24.95 2.5 36.5 77 -1.1 30 0
06:28 1016 30 845 24.95 2.5 36.5 77 -1.1 30 0
06:29 1016 30 845 24.95 2.5 36.5 78 -1 30.1 0
06:30 1016 30 845 24.95 2.5 36.5 77 -1.1 30 0
06:31 1016 30 845 24.95 2.6 36.6 77 -1 30.2 0
06:32 1016 30 845 24.95 2.7 36.8 77 -1 30.2 0
06:33 1016 30 845 24.95 2.8 37.1 76 -1 30.2 0
06:34 1016 30 845 24.95 3 37.3 75 -1 30.3 0
06:35 1016 30 845 24.95 3 37.3 75 -1.1 30.1 0
06:36 1016 30 845 24.95 2.8 37.1 75 -1.1 30 0
06:37 1016 30 845 24.95 2.7 36.9 76 -1.1 30 0
06:38 1016 30 845 24.95 2.5 36.6 77 -1.1 30 0
06:39 1016 30 845 24.95 2.5 36.5 77 -1.2 29.9 0
06:40 1016 30 845 24.95 2.4 36.3 77 -1.2 29.9 0
06:41 1016 30 845 24.95 2.3 36.1 78 -1.2 29.9 0
06:42 1016 30 845 24.95 2.1 35.9 78 -1.2 29.8 0
06:43 1016 30 845 24.95 2 35.6 79 -1.3 29.7 0
06:44 1016 30 845 24.95 1.8 35.3 80 -1.3 29.6 0
06:45 1016 30 845 24.95 1.7 35.1 81 -1.3 29.7 0
06:46 1016 30 845 24.95 1.7 35 81 -1.3 29.7 0
06:47 1016 30 845 24.95 1.7 35 81 -1.3 29.7 0
06:48 1016 30 845 24.95 1.5 34.7 81 -1.4 29.5 0
06:49 1016 30 845 24.95 1.4 34.6 81 -1.4 29.5 0
06:50 1016 30 845 24.95 1.2 34.2 82 -1.6 29.2 0
06:51 1016 30 845 24.95 1 33.8 83 -1.6 29.1 0
06:52 1016 30 845 24.95 0.7 33.3 84 -1.6 29.1 0
06:53 1016 30 845 24.95 0.6 33.1 85 -1.6 29.2 0
06:54 1016 30 845 24.95 0.6 33.1 85 -1.6 29.2 0
06:55 1016 30 845 24.95 0.6 33.1 86 -1.5 29.2 0
06:56 1016 30 845 24.95 0.7 33.2 85 -1.5 29.3 0
06:57 1016 30 845 24.95 0.8 33.5 84 -1.5 29.3 0
06:58 1016 30 845 24.95 0.8 33.5 84 -1.6 29.1 0
06:59 1016 30 845 24.95 0.8 33.4 85 -1.5 29.3 0
07:00 1016 30 845 24.95 0.7 33.2 85 -1.5 29.2 0
07:01 1016 30 845 24.95 0.7 33.2 86 -1.4 29.5 0
07:02 1016 30 845 24.95 0.7 33.2 87 -1.3 29.6 0
07:03 1016 30 845 24.95 0.7 33.3 87 -1.2 29.9 0
07:04 1016 30 845 24.95 0.9 33.6 87 -1.1 30.1 0
07:05 1016 30 845 24.95 1.2 34.1 86 -1 30.2 0
07:06 1016 30 845 24.95 1.5 34.8 84 -0.9 30.3 0
07:07 1016 30 845 24.95 1.8 35.3 82 -0.9 30.4 0
07:08 1016 30 845 24.95 2 35.6 81 -0.9 30.4 0
07:09 1016 30 845 24.95 2 35.6 81 -0.9 30.3 0
07:10 1016 30 845 24.95 2 35.5 81 -1 30.2 0
07:11 1016 30 845 24.95 1.9 35.5 81 -1 30.2 0
07:12 1016 30 845 24.95 1.9 35.4 81 -1.1 30.1 0
07:13 1016 30 845 24.95 1.8 35.3 81 -1.1 30 0
07:14 1016 30 845 24.95 1.8 35.2 81 -1.1 30.1 0
07:15 1016 30 845 24.95 1.8 35.2 81 -1.1 30 0
07:16 1016 30 845 24.95 1.7 35 82 -1.1 30 0
07:17 1016 30 845 24.95 1.7 35 82 -1.1 30.1 0
07:18 1016 30 845 24.95 1.7 35.1 82 -1 30.2 0
07:19 1016 30 845 24.95 1.8 35.2 82 -1 30.2 0
07:20 1016 30 845 24.95 1.8 35.2 82 -1 30.1 0
07:21 1016 30 845 24.95 1.8 35.3 81 -1 30.2 0
07:22 1016 30 845 24.95 1.9 35.4 81 -1 30.1 0
07:23 1016 30 845 24.95 2 35.6 81 -1 30.3 0
07:24 1016 30 845 24.95 2.1 35.7 80 -0.9 30.3 0
07:25 1016 30 845 24.95 2.2 35.9 80 -0.9 30.3 0
07:26 1016 30 845 24.95 2.2 35.9 80 -1 30.2 0
07:27 1016 30 845 24.95 2.1 35.8 80 -1 30.2 0
07:28 1016 30 845 24.95 2.1 35.8 80 -1 30.3 0
07:29 1016 30 845 24.95 2.1 35.7 81 -0.9 30.4 0
07:30 1016 30 845 24.95 2 35.7 81 -0.9 30.4 0
07:31 1016 30 845 24.95 2 35.6 82 -0.8 30.5 0
07:32 1016 30 845 24.95 1.9 35.4 82 -0.8 30.6 0
07:33 1016 30 845 24.95 1.9 35.4 83 -0.7 30.7 0
07:34 1016 30 845 24.95 2 35.5 83 -0.6 30.9 0
07:35 1016 30 845 24.95 2.1 35.7 82 -0.6 30.9 0
07:36 1016 30 846 24.98 2.3 36.1 82 -0.6 31 0
07:37 1016 30 845 24.95 2.4 36.3 81 -0.5 31.1 0
07:38 1016 30 845 24.95 2.5 36.5 80 -0.6 31 0
07:39 1016 30 845 24.95 2.8 37 79 -0.5 31.1 0
07:40 1016 30 845 24.95 3 37.4 78 -0.5 31.2 0
07:41 1016 30 845 24.95 3.2 37.7 77 -0.5 31.1 0
07:42 1016 30 845 24.95 3.5 38.2 76 -0.4 31.3 0
07:43 1016 30 846 24.98 3.6 38.5 75 -0.4 31.3 0
07:44 1016 30 846 24.98 3.7 38.6 75 -0.3 31.4 0
07:45 1016 30 845 24.95 3.7 38.7 75 -0.3 31.4 0
07:46 1016 30 846 24.98 3.8 38.8 75 -0.2 31.6 0
07:47 1016 30 846 24.98 3.8 38.9 75 -0.2 31.7 0
07:48 1016 30 846 24.98 3.8 38.9 75 -0.1 31.8 0
07:49 1016 30 846 24.98 3.8 38.8 76 -0.1 31.8 0
07:50 1016 30 846 24.98 3.8 38.9 76 -0 31.9 0
07:51 1016 30 846 24.98 3.9 39 76 0 32.1 0
07:52 1016 30 846 24.98 3.9 39.1 76 0.1 32.1 0
07:53 1016 30 846 24.98 4 39.2 76 0.1 32.2 0
07:54 1016 30 846 24.98 4.1 39.4 76 0.2 32.4 0
07:55 1016 30 846 24.98 4.2 39.6 76 0.3 32.5 0
07:56 1016 30 846 24.98 4.3 39.8 75 0.3 32.6 0
07:57 1016 30 846 24.98 4.4 39.9 75 0.4 32.8 0
07:58 1016 30 846 24.98 4.5 40.1 75 0.5 32.9 0
07:59 1016 30 846 24.98 4.6 40.2 75 0.6 33 0
08:00 1016 30 846 24.98 4.7 40.4 75 0.6 33 0
08:01 1016 30 846 24.98 4.8 40.7 73 0.4 32.8 0
08:02 1016 30 846 24.98 5 41 73 0.5 32.9 0
08:03 1016 30 846 24.98 5.1 41.3 72 0.4 32.8 0
08:04 1016 30 846 24.98 5.3 41.6 71 0.4 32.8 0
08:05 1016 30 846 24.98 5.5 41.8 71 0.5 33 0
08:06 1016 30 846 24.98 5.6 42.1 70 0.7 33.2 0
08:07 1016 30 846 24.98 5.7 42.3 70 0.6 33.1 0
08:08 1016 30 846 24.98 5.7 42.3 70 0.6 33.1 0
08:09 1016 30 846 24.98 5.7 42.3 70 0.7 33.3 0
08:10 1016 30 846 24.98 5.8 42.4 71 0.9 33.6 0
08:11 1016 30 846 24.98 5.8 42.4 71 0.9 33.7 0
08:12 1016 30 846 24.98 5.8 42.4 72 1 33.9 0
08:13 1016 30 846 24.98 5.8 42.5 71 0.9 33.7 0
08:14 1016 30 846 24.98 5.9 42.6 71 1 33.8 0
08:15 1016 30 846 24.98 6 42.8 69 0.8 33.4 0
08:16 1017 30.03 846 24.98 6.1 43.1 69 1 33.7 0
08:17 1017 30.03 846 24.98 6.3 43.3 69 0.9 33.7 0
08:18 1017 30.03 846 24.98 6.5 43.6 68 1 33.8 0
08:19 1017 30.03 846 24.98 6.6 43.9 68 1.1 34 0
08:20 1017 30.03 846 24.98 6.7 44.1 67 1.1 33.9 0
08:21 1017 30.03 846 24.98 6.9 44.4 67 1.2 34.1 0
08:22 1017 30.03 846 24.98 7.1 44.7 67 1.3 34.3 0
08:23 1017 30.03 846 24.98 7.2 44.9 67 1.4 34.5 0
08:24 1017 30.03 846 24.98 7.3 45.1 66 1.4 34.5 0
08:25 1017 30.03 846 24.98 7.4 45.3 66 1.5 34.7 0
08:26 1017 30.03 846 24.98 7.5 45.6 66 1.6 35 0
08:27 1017 30.03 846 24.98 7.7 45.8 66 1.8 35.3 0
08:28 1017 30.03 846 24.98 7.8 46.1 66 2 35.5 0
08:29 1017 30.03 846 24.98 7.9 46.3 65 1.9 35.4 0
08:30 1017 30.03 846 24.98 8.1 46.6 64 1.7 35.1 0
08:31 1017 30.03 846 24.98 8.2 46.8 64 1.9 35.4 0
08:32 1017 30.03 846 24.98 8.3 47 62 1.5 34.7 0
08:33 1017 30.03 846 24.98 8.4 47.2 63 1.7 35.1 0
08:34 1017 30.03 846 24.98 8.5 47.4 61 1.4 34.5 0
08:35 1017 30.03 846 24.98 8.6 47.5 62 1.7 35.1 0
08:36 1017 30.03 846 24.98 8.7 47.7 62 1.8 35.2 0
08:37 1017 30.03 846 24.98 8.8 47.8 61 1.8 35.2 0
08:38 1017 30.03 846 24.98 8.9 48 59 1.4 34.5 0
08:39 1017 30.03 846 24.98 8.9 48.1 59 1.5 34.7 0
08:40 1017 30.03 846 24.98 9 48.2 60 1.6 34.8 0
08:41 1017 30.03 846 24.98 9.1 48.4 59 1.6 34.8 0
08:42 1017 30.03 846 24.98 9.2 48.6 59 1.6 34.8 0
08:43 1017 30.03 846 24.98 9.3 48.7 57 1.2 34.2 0
08:44 1017 30.03 846 24.98 9.3 48.8 58 1.5 34.6 0
08:45 1017 30.03 846 24.98 9.4 48.8 57 1.2 34.2 0
08:46 1017 30.03 846 24.98 9.4 49 58 1.6 34.9 0
08:47 1017 30.03 846 24.98 9.5 49 58 1.6 34.8 0
08:48 1017 30.03 846 24.98 9.5 49.2 58 1.7 35.1 0
08:49 1017 30.03 846 24.98 9.6 49.2 57 1.4 34.5 0
08:50 1017 30.03 846 24.98 9.6 49.3 56 1.3 34.3 0
08:51 1017 30.03 846 24.98 9.6 49.3 56 1.4 34.5 0
08:52 1017 30.03 846 24.98 9.6 49.3 57 1.5 34.6 0
08:53 1017 30.03 846 24.98 9.7 49.4 56 1.5 34.7 0
08:54 1017 30.03 846 24.98 9.7 49.5 58 1.8 35.2 0
08:55 1017 30.03 846 24.98 9.8 49.6 58 1.9 35.4 0
08:56 1017 30.03 846 24.98 9.8 49.6 56 1.5 34.7 0
08:57 1017 30.03 846 24.98 9.9 49.8 56 1.6 34.8 0
08:58 1017 30.03 846 24.98 9.9 49.9 56 1.6 35 0
08:59 1017 30.03 846 24.98 10 50 56 1.8 35.2 0
09:00 1017 30.03 846 24.98 10.1 50.2 57 2 35.6 0
09:01 1017 30.03 846 24.98 10.3 50.5 57 2.2 35.9 0
09:02 1017 30.03 846 24.98 10.5 50.8 57 2.4 36.3 0
09:03 1017 30.03 846 24.98 10.6 51.2 55 2 35.6 0
09:04 1017 30.03 846 24.98 10.8 51.4 53 1.7 35 0
09:05 1017 30.03 846 24.98 10.9 51.5 54 2 35.6 0
09:06 1017 30.03 846 24.98 10.9 51.6 53 1.8 35.3 0
09:07 1017 30.03 846 24.98 10.9 51.6 54 2.1 35.8 0
09:08 1017 30.03 846 24.98 11 51.8 53 1.8 35.3 0
09:09 1017 30.03 846 24.98 11.1 52 51 1.5 34.6 0
09:10 1017 30.03 846 24.98 11.2 52.1 52 1.6 34.9 0
09:11 1017 30.03 846 24.98 11.2 52.2 52 1.9 35.5 0
09:12 1017 30.03 846 24.98 11.3 52.4 50 1.5 34.6 0
09:13 1017 30.03 846 24.98 11.3 52.4 51 1.6 34.8 0
09:14 1017 30.03 846 24.98 11.4 52.5 50 1.4 34.6 0
09:15 1017 30.03 846 24.98 11.5 52.6 50 1.5 34.8 0
09:16 1017 30.03 846 24.98 11.6 52.8 51 1.8 35.2 0
09:17 1017 30.03 846 24.98 11.6 52.9 50 1.5 34.7 0
09:18 1017 30.03 846 24.98 11.7 53 49 1.4 34.5 0
09:19 1017 30.03 846 24.98 11.8 53.2 51 2 35.6 0
09:20 1017 30.03 846 24.98 11.9 53.4 49 1.6 34.8 0
09:21 1017 30.03 846 24.98 12 53.5 49 1.5 34.7 0
09:22 1017 30.03 846 24.98 12 53.5 48 1.2 34.2 0
09:23 1017 30.03 846 24.98 12 53.6 49 1.6 34.9 0
09:24 1017 30.03 846 24.98 12 53.6 50 2 35.5 0
09:25 1017 30.03 846 24.98 12.1 53.8 49 1.7 35 0
09:26 1017 30.03 846 24.98 12.2 53.9 48 1.6 35 0
09:27 1017 30.03 846 24.98 12.4 54.3 49 1.9 35.5 0
09:28 1017 30.03 846 24.98 12.6 54.6 48 1.9 35.3 0
09:29 1017 30.03 846 24.98 12.7 54.9 47 1.7 35 0
09:30 1017 30.03 846 24.98 12.8 55.1 46 1.4 34.6 0
09:31 1017 30.03 846 24.98 12.9 55.2 48 2.2 35.9 0
09:32 1017 30.03 846 24.98 12.8 55.1 45 1.3 34.3 0
09:33 1017 30.03 846 24.98 12.7 54.9 45 1.2 34.1 0
09:34 1017 30.03 846 24.98 12.7 54.9 46 1.6 34.8 0
09:35 1017 30.03 846 24.98 12.8 55.1 45 1.3 34.3 0
09:36 1017 30.03 846 24.98 12.9 55.2 47 1.8 35.3 0
09:37 1017 30.03 846 24.98 13 55.4 46 1.6 35 0
09:38 1017 30.03 846 24.98 13.1 55.6 44 1.1 33.9 0
09:39 1017 30.03 846 24.98 13.1 55.6 45 1.6 34.8 0
09:40 1017 30.03 846 24.98 13.1 55.7 45 1.6 35 0
09:41 1017 30.03 846 24.98 13.2 55.8 46 1.8 35.3 0
09:42 1017 30.03 846 24.98 13.3 55.9 42 0.8 33.5 0
09:43 1017 30.03 846 24.98 13.3 56 42 0.9 33.5 0
09:44 1017 30.03 846 24.98 13.4 56.2 43 1 33.8 0
09:45 1017 30.03 846 24.98 13.6 56.4 41 0.8 33.4 0
09:46 1017 30.03 846 24.98 13.7 56.6 45 2 35.7 0
09:47 1017 30.03 846 24.98 13.8 56.9 41 0.8 33.4 0
09:48 1017 30.03 846 24.98 13.8 56.9 44 1.8 35.2 0
09:49 1017 30.03 846 24.98 13.8 56.8 43 1.5 34.7 0
09:50 1017 30.03 846 24.98 13.7 56.7 40 0.4 32.8 0
09:51 1017 30.03 846 24.98 13.7 56.6 42 1.1 34.1 0
09:52 1017 30.03 846 24.98 13.7 56.7 41 0.9 33.6 0
09:53 1017 30.03 846 24.98 13.7 56.7 40 0.4 32.7 0
09:54 1017 30.03 846 24.98 13.7 56.6 41 0.7 33.3 0
09:55 1017 30.03 846 24.98 13.7 56.6 41 0.7 33.2 0
09:56 1017 30.03 846 24.98 13.7 56.7 41 0.7 33.3 0
09:57 1017 30.03 846 24.98 13.8 56.9 41 0.9 33.7 0
09:58 1017 30.03 846 24.98 14 57.2 40 0.6 33 0
09:59 1017 30.03 846 24.98 14 57.3 44 1.9 35.4 0
10:00 1017 30.03 846 24.98 14.1 57.4 43 1.8 35.2 0
10:01 1017 30.03 846 24.98 14.1 57.3 39 0.3 32.6 0
10:02 1017 30.03 846 24.98 13.9 56.9 40 0.6 33.2 0
10:03 1017 30.03 846 24.98 13.9 56.9 43 1.5 34.8 0
10:04 1017 30.03 846 24.98 13.9 57 43 1.5 34.7 0
10:05 1017 30.03 846 24.98 13.9 57 41 0.9 33.6 0
10:06 1017 30.03 846 24.98 13.8 56.8 43 1.5 34.7 0
10:07 1017 30.03 846 24.98 13.6 56.5 46 2.2 36 0
10:08 1017 30.03 846 24.98 13.5 56.3 47 2.4 36.4 0
10:09 1017 30.03 846 24.98 13.5 56.3 45 1.9 35.5 0
10:10 1017 30.03 846 24.98 13.5 56.3 45 2 35.6 0
10:11 1017 30.03 846 24.98 13.4 56.2 46 2.2 36 0
10:12 1017 30.03 846 24.98 13.4 56 46 2 35.6 0
10:13 1017 30.03 846 24.98 13.3 56 46 1.9 35.4 0
10:14 1017 30.03 846 24.98 13.3 56 44 1.4 34.5 0
10:15 1017 30.03 846 24.98 13.3 56 45 1.7 35.1 0
10:16 1017 30.03 846 24.98 13.2 55.8 46 1.9 35.5 0
10:17 1017 30.03 846 24.98 13.3 55.9 48 2.6 36.7 0
10:18 1017 30.03 846 24.98 13.3 56 52 3.7 38.7 0
10:19 1017 30.03 846 24.98 13.4 56 46 2 35.6 0
10:20 1017 30.03 846 24.98 13.3 55.9 45 1.7 35 0
10:21 1017 30.03 846 24.98 13.2 55.8 49 2.9 37.3 0
10:22 1017 30.03 846 24.98 13.3 56 46 2 35.5 0
10:23 1017 30.03 846 24.98 13.4 56.1 47 2.5 36.5 0
10:24 1017 30.03 846 24.98 13.4 56.1 43 1.2 34.2 0
10:25 1017 30.03 846 24.98 13.4 56.2 48 2.8 37 0
10:26 1017 30.03 846 24.98 13.5 56.3 43 1.1 34 0
10:27 1017 30.03 846 24.98 13.4 56.2 47 2.4 36.4 0
10:28 1017 30.03 846 24.98 13.4 56.1 44 1.4 34.6 0
10:29 1017 30.03 846 24.98 13.4 56 45 1.7 35 0
10:30 1017 30.03 846 24.98 13.4 56 47 2.2 36 0
10:31 1017 30.03 846 24.98 13.4 56 47 2.2 36 0
10:32 1017 30.03 846 24.98 13.4 56.1 50 3.2 37.8 0
10:33 1017 30.03 846 24.98 13.5 56.3 48 2.7 36.9 0
10:34 1017 30.03 846 24.98 13.5 56.3 46 2.1 35.9 0
10:35 1017 30.03 846 24.98 13.6 56.4 49 3 37.5 0
10:36 1017 30.03 846 24.98 13.5 56.3 45 1.8 35.3 0
10:37 1017 30.03 846 24.98 13.4 56.1 46 2.1 35.8 0
10:38 1017 30.03 846 24.98 13.3 55.9 47 2.3 36.2 0
10:39 1017 30.03 846 24.98 13.2 55.8 45 1.5 34.7 0
10:40 1017 30.03 846 24.98 13.1 55.7 46 1.7 35.1 0
10:41 1017 30.03 846 24.98 13.2 55.7 46 2 35.6 0
10:42 1017 30.03 846 24.98 13.2 55.7 46 1.8 35.2 0
10:43 1017 30.03 846 24.98 13.2 55.7 47 2.1 35.9 0
10:44 1017 30.03 846 24.98 13.2 55.7 47 2.2 36 0
10:45 1017 30.03 846 24.98 13.2 55.8 49 2.9 37.2 0
10:46 1017 30.03 846 24.98 13.4 56 50 3.1 37.6 0
10:47 1017 30.03 846 24.98 13.5 56.2 51 3.6 38.5 0
10:48 1017 30.03 846 24.98 13.5 56.3 45 2 35.6 0
10:49 1017 30.03 846 24.98 13.4 56.2 48 2.6 36.7 0
10:50 1017 30.03 846 24.98 13.5 56.2 49 3.1 37.7 0
10:51 1017 30.03 846 24.98 13.5 56.3 46 2.3 36.2 0
10:52 1017 30.03 846 24.98 13.6 56.4 48 2.8 37.1 0
10:53 1017 30.03 846 24.98 13.6 56.5 50 3.3 38 0
10:54 1017 30.03 846 24.98 13.8 56.9 48 3 37.3 0
10:55 1017 30.03 846 24.98 14 57.1 44 1.9 35.5 0
10:56 1017 30.03 846 24.98 14 57.2 45 2.5 36.5 0
10:57 1017 30.03 846 24.98 14 57.1 46 2.5 36.6 0
10:58 1017 30.03 846 24.98 14 57.1 46 2.6 36.7 0
10:59 1017 30.03 846 24.98 14 57.2 44 1.9 35.4 0
11:00 1017 30.03 846 24.98 14 57.3 46 2.6 36.7 0
11:01 1017 30.03 846 24.98 14.2 57.5 40 0.7 33.2 0
11:02 1017 30.03 846 24.98 14.1 57.3 44 2.2 35.9 0
11:03 1017 30.03 846 24.98 14 57.2 44 2.1 35.7 0
11:04 1017 30.03 846 24.98 14 57.2 42 1.5 34.7 0
11:05 1017 30.03 846 24.98 14.1 57.3 44 1.9 35.5 0
11:06 1017 30.03 846 24.98 14.1 57.4 38 0.2 32.4 0
11:07 1017 30.03 846 24.98 14 57.2 44 2.2 35.9 0
11:08 1017 30.03 846 24.98 14.1 57.4 44 2.3 36.1 0
11:09 1017 30.03 846 24.98 14 57.3 42 1.4 34.6 0
11:10 1017 30.03 846 24.98 14 57.1 41 1 33.8 0
11:11 1017 30.03 846 24.98 13.9 57 40 0.6 33 0
11:12 1017 30.03 846 24.98 13.9 57 40 0.7 33.3 0
11:13 1017 30.03 846 24.98 13.9 57 43 1.7 35.1 0
11:14 1017 30.03 846 24.98 13.9 57.1 41 1 33.8 0
11:15 1017 30.03 846 24.98 13.9 57 46 2.6 36.8 0
11:16 1017 30.03 846 24.98 14 57.1 42 1.2 34.2 0
11:17 1017 30.03 846 24.98 14 57.3 45 2.3 36.2 0
11:18 1017 30.03 846 24.98 14.1 57.4 45 2.4 36.3 0
11:19 1017 30.03 846 24.98 14.1 57.3 44 2.1 35.8 0
11:20 1017 30.03 846 24.98 14 57.1 45 2.3 36.1 0
11:21 1017 30.03 846 24.98 13.9 57.1 42 1.4 34.5 0
11:22 1017 30.03 846 24.98 13.9 57 47 3 37.3 0
11:23 1017 30.03 846 24.98 14 57.2 46 2.7 36.9 0
11:24 1017 30.03 846 24.98 14.1 57.3 41 1.1 34 0
11:25 1017 30.03 846 24.98 14 57.3 43 1.7 35.1 0
11:26 1017 30.03 846 24.98 14.1 57.4 41 1.3 34.3 0
11:27 1017 30.03 847 25.01 14.2 57.6 41 1.1 34 0
11:28 1017 30.03 847 25.01 14.2 57.5 44 2.2 36 0
11:29 1017 30.03 846 24.98 14.3 57.7 39 0.7 33.3 0
11:30 1017 30.03 846 24.98 14.2 57.5 42 1.6 34.9 0
11:31 1017 30.03 846 24.98 14.2 57.5 40 0.9 33.7 0
11:32 1017 30.03 847 25.01 14.3 57.7 41 1.4 34.5 0
11:33 1017 30.03 847 25.01 14.4 57.9 41 1.3 34.4 0
11:34 1017 30.03 846 24.98 14.4 58 39 0.7 33.2 0
11:35 1017 30.03 846 24.98 14.5 58.1 40 1 33.8 0
11:36 1017 30.03 846 24.98 14.6 58.3 44 2.6 36.6 0
11:37 1017 30.03 846 24.98 14.8 58.6 42 1.9 35.4 0
11:38 1017 30.03 846 24.98 14.8 58.7 37 0.3 32.5 0
11:39 1017 30.03 846 24.98 14.7 58.5 40 1.4 34.5 0
11:40 1017 30.03 846 24.98 14.7 58.5 40 1.3 34.4 0
11:41 1017 30.03 846 24.98 14.7 58.5 40 1.2 34.2 0
11:42 1017 30.03 846 24.98 14.8 58.6 40 1.4 34.6 0
11:43 1017 30.03 846 24.98 14.8 58.6 39 1.2 34.1 0
11:44 1017 30.03 846 24.98 14.8 58.6 43 2.5 36.5 0
11:45 1017 30.03 846 24.98 14.7 58.4 41 1.7 35 0
11:46 1017 30.03 846 24.98 14.5 58.1 43 2.1 35.8 0
11:47 1017 30.03 846 24.98 14.5 58 45 2.7 36.9 0
11:48 1017 30.03 846 24.98 14.6 58.3 41 1.6 34.9 0
11:49 1017 30.03 846 24.98 14.7 58.5 44 2.6 36.6 0
11:50 1017 30.03 846 24.98 14.7 58.5 37 0.4 32.7 0
11:51 1017 30.03 846 24.98 14.6 58.4 44 2.6 36.7 0
11:52 1017 30.03 846 24.98 14.7 58.4 38 0.6 33 0
11:53 1017 30.03 846 24.98 14.5 58.2 41 1.4 34.5 0
11:54 1017 30.03 846 24.98 14.5 58.1 42 1.9 35.4 0
11:55 1017 30.03 846 24.98 14.5 58.1 40 1.2 34.2 0
11:56 1017 30.03 846 24.98 14.5 58.1 40 1 33.8 0
11:57 1017 30.03 846 24.98 14.5 58.2 39 0.8 33.5 0
11:58 1017 30.03 846 24.98 14.6 58.2 43 2.4 36.3 0
11:59 1017 30.03 846 24.98 14.7 58.5 42 1.9 35.5 0
12:00 1017 30.03 846 24.98 15 59 39 1.2 34.1 0
12:01 1017 30.03 846 24.98 15 59 39 1.4 34.6 0
12:02 1017 30.03 846 24.98 15 59 42 2.4 36.3 0
12:03 1017 30.03 846 24.98 15.1 59.3 38 0.8 33.5 0
12:04 1017 30.03 846 24.98 15.1 59.3 39 1.4 34.6 0
12:05 1017 30.03 846 24.98 15.2 59.3 44 3.1 37.6 0
12:06 1017 30.03 846 24.98 15.3 59.6 42 2.5 36.6 0
12:07 1017 30.03 846 24.98 15.3 59.6 38 1.2 34.2 0
12:08 1017 30.03 846 24.98 15.2 59.3 41 2 35.5 0
12:09 1017 30.03 846 24.98 15.2 59.3 43 2.9 37.3 0
12:10 1017 30.03 846 24.98 15.3 59.5 37 0.8 33.4 0
12:11 1017 30.03 846 24.98 15.2 59.4 39 1.6 34.9 0
12:12 1017 30.03 846 24.98 15.2 59.4 40 1.9 35.4 0
12:13 1017 30.03 846 24.98 15.2 59.4 38 0.9 33.7 0
12:14 1017 30.03 846 24.98 15.2 59.4 39 1.5 34.7 0
12:15 1017 30.03 846 24.98 15.3 59.5 40 1.8 35.3 0
12:16 1017 30.03 846 24.98 15.4 59.8 39 1.8 35.2 0
12:17 1017 30.03 846 24.98 15.5 59.8 37 1 33.8 0
12:18 1017 30.03 846 24.98 15.5 60 42 2.8 37 0
12:19 1017 30.03 846 24.98 15.7 60.3 37 1.4 34.5 0
12:20 1017 30.03 846 24.98 15.8 60.5 37 1.3 34.4 0
12:21 1017 30.03 846 24.98 15.9 60.6 37 1.4 34.5 0
12:22 1017 30.03 846 24.98 15.8 60.5 38 1.8 35.2 0
12:23 1017 30.03 846 24.98 15.9 60.6 41 2.6 36.7 0
12:24 1017 30.03 846 24.98 15.9 60.5 39 2.1 35.8 0
12:25 1017 30.03 846 24.98 15.9 60.5 36 0.9 33.7 0
12:26 1017 30.03 846 24.98 15.8 60.5 42 2.9 37.2 0
12:27 1017 30.03 846 24.98 16 60.7 41 2.7 36.9 0
12:28 1017 30.03 846 24.98 16 60.9 39 2.2 35.9 0
12:29 1017 30.03 846 24.98 16 60.8 38 1.7 35.1 0
12:30 1017 30.03 846 24.98 15.9 60.5 40 2.4 36.3 0
12:31 1017 30.03 846 24.98 15.8 60.5 39 1.9 35.4 0
12:32 1017 30.03 846 24.98 15.9 60.5 41 2.9 37.2 0
12:33 1017 30.03 846 24.98 15.9 60.6 42 3 37.5 0
12:34 1017 30.03 846 24.98 16 60.8 36 1.2 34.1 0
12:35 1017 30.03 846 24.98 15.9 60.6 36 1 33.8 0
12:36 1017 30.03 846 24.98 15.7 60.3 38 1.4 34.6 0
12:37 1017 30.03 846 24.98 15.7 60.3 43 3.2 37.8 0
12:38 1017 30.03 846 24.98 15.8 60.4 38 1.5 34.8 0
12:39 1017 30.03 846 24.98 15.9 60.6 36 0.9 33.6 0
12:40 1017 30.03 846 24.98 15.9 60.7 38 1.7 35.1 0
12:41 1017 30.03 846 24.98 16 60.7 42 3.1 37.6 0
12:42 1017 30.03 846 24.98 16 60.8 41 2.9 37.3 0
12:43 1017 30.03 846 24.98 16 60.9 42 3.1 37.7 0
12:44 1017 30.03 846 24.98 16.1 61 38 1.8 35.3 0
12:45 1017 30.03 846 24.98 16.1 61 40 2.6 36.7 0
12:46 1017 30.03 846 24.98 16.2 61.1 39 2.4 36.4 0
12:47 1017 30.03 846 24.98 16.1 61 41 3 37.4 0
12:48 1017 30.03 846 24.98 16 60.8 44 3.8 38.9 0
12:49 1017 30.03 846 24.98 16.1 61 45 4.2 39.5 0
12:50 1017 30.03 846 24.98 16.3 61.4 39 2.5 36.5 0
12:51 1017 30.03 846 24.98 16.3 61.4 42 3.4 38.1 0
12:52 1017 30.03 846 24.98 16.2 61.2 37 1.5 34.6 0
12:53 1017 30.03 846 24.98 16.1 60.9 39 2.2 35.9 0
12:54 1017 30.03 846 24.98 16.1 60.9 39 2.2 36 0
12:55 1017 30.03 846 24.98 16.1 61 37 1.7 35 0
12:56 1017 30.03 846 24.98 16.1 60.9 43 3.4 38.2 0
12:57 1017 30.03 846 24.98 16.1 61 40 2.6 36.7 0
12:58 1017 30.03 846 24.98 16 60.9 41 2.9 37.3 0
12:59 1017 30.03 846 24.98 16.1 61 40 2.8 37 0
13:00 1017 30.03 846 24.98 16.2 61.2 42 3.4 38.2 0
13:01 1017 30.03 846 24.98 16.2 61.2 38 2 35.5 0
13:02 1017 30.03 846 24.98 16.1 61 37 1.7 35 0
13:03 1017 30.03 846 24.98 16.2 61.1 40 2.7 36.8 0
13:04 1017 30.03 846 24.98 16.3 61.3 39 2.5 36.5 0
13:05 1017 30.03 846 24.98 16.3 61.3 36 1.5 34.6 0
13:06 1017 30.03 846 24.98 16.3 61.3 39 2.5 36.6 0
13:07 1017 30.03 846 24.98 16.3 61.4 40 2.9 37.3 0
13:08 1017 30.03 846 24.98 16.3 61.3 40 2.6 36.6 0
13:09 1017 30.03 846 24.98 16.2 61.1 37 1.5 34.6 0
13:10 1017 30.03 846 24.98 16.1 61 38 1.8 35.3 0
13:11 1017 30.03 846 24.98 16.1 61 41 2.8 37.1 0
13:12 1017 30.03 846 24.98 16.3 61.4 40 2.7 36.9 0
13:13 1017 30.03 846 24.98 16.5 61.6 43 3.9 39 0
13:14 1017 30.03 846 24.98 16.5 61.8 40 3.1 37.6 0
13:15 1017 30.03 846 24.98 16.5 61.8 38 2.1 35.8 0
13:16 1017 30.03 846 24.98 16.5 61.6 37 2 35.6 0
13:17 1017 30.03 846 24.98 16.4 61.5 39 2.4 36.3 0
13:18 1017 30.03 846 24.98 16.4 61.6 38 2.1 35.8 0
13:19 1017 30.03 846 24.98 16.5 61.6 39 2.5 36.5 0
13:20 1017 30.03 846 24.98 16.5 61.6 36 1.5 34.7 0
13:21 1017 30.03 846 24.98 16.3 61.4 44 4.3 39.8 0
13:22 1017 30.03 846 24.98 16.4 61.5 41 3.1 37.6 0
13:23 1017 30.03 846 24.98 16.6 61.8 42 3.8 38.8 0
13:24 1017 30.03 846 24.98 16.8 62.2 43 4.4 39.9 0
13:25 1017 30.03 846 24.98 16.9 62.4 37 2.2 36 0
13:26 1017 30.03 846 24.98 16.9 62.4 38 2.7 36.9 0
13:27 1017 30.03 846 24.98 16.9 62.4 36 1.8 35.2 0
13:28 1017 30.03 846 24.98 16.7 62 40 3.1 37.5 0
13:29 1016 30 846 24.98 16.5 61.8 39 2.6 36.7 0
13:30 1016 30 846 24.98 16.5 61.6 36 1.5 34.7 0
13:31 1016 30 846 24.98 16.4 61.5 39 2.4 36.4 0
13:32 1016 30 846 24.98 16.5 61.8 38 2.1 35.8 0
13:33 1016 30 846 24.98 16.5 61.7 38 2.1 35.9 0
13:34 1016 30 846 24.98 16.5 61.6 40 2.8 37 0
13:35 1016 30 846 24.98 16.5 61.7 36 1.6 34.9 0
13:36 1016 30 846 24.98 16.5 61.7 42 3.5 38.3 0
13:37 1016 30 846 24.98 16.6 62 36 1.7 35 0
13:38 1016 30 846 24.98 16.6 61.9 43 4.2 39.6 0
13:39 1016 30 846 24.98 16.7 62.1 38 2.5 36.6 0
13:40 1016 30 846 24.98 16.7 62 43 4.2 39.6 0
13:41 1016 30 846 24.98 16.7 62.1 37 2 35.6 0
13:42 1016 30 846 24.98 16.7 62.1 38 2.3 36.2 0
13:43 1016 30 846 24.98 16.7 62.1 42 3.7 38.7 0
13:44 1016 30 846 24.98 16.8 62.3 37 2.2 36 0
13:45 1016 30 846 24.98 16.9 62.5 34 1.1 34 0
13:46 1016 30 846 24.98 16.9 62.4 38 2.6 36.6 0
13:47 1016 30 846 24.98 16.9 62.4 37 2.3 36.2 0
13:48 1016 30 846 24.98 16.9 62.5 38 2.6 36.7 0
13:49 1016 30 846 24.98 17.1 62.7 36 1.9 35.5 0
13:50 1016 30 846 24.98 17.1 62.7 39 3.3 37.9 0
13:51 1016 30 846 24.98 17 62.5 37 2.3 36.1 0
13:52 1016 30 846 24.98 16.8 62.3 37 2.2 35.9 0
13:53 1016 30 846 24.98 16.7 62.1 37 1.9 35.5 0
13:54 1016 30 846 24.98 16.7 62 40 3.1 37.6 0
13:55 1016 30 846 24.98 16.7 62.1 40 3.2 37.8 0
13:56 1016 30 846 24.98 16.8 62.3 37 2 35.7 0
13:57 1016 30 846 24.98 16.9 62.4 41 3.6 38.4 0
13:58 1016 30 846 24.98 16.9 62.3 40 3.3 38 0
13:59 1016 30 846 24.98 17.1 62.7 37 2.3 36.1 0
14:00 1016 30 846 24.98 17.1 62.7 37 2.3 36.1 0
14:01 1016 30 846 24.98 17 62.6 36 2 35.6 0
14:02 1016 30 845 24.95 16.7 62.1 36 1.5 34.8 0
14:03 1016 30 845 24.95 16.6 61.8 41 3.2 37.8 0
14:04 1016 30 845 24.95 16.7 62 38 2.5 36.6 0
14:05 1016 30 845 24.95 16.8 62.3 36 1.6 34.9 0
14:06 1016 30 845 24.95 16.9 62.4 36 1.9 35.4 0
14:07 1016 30 845 24.95 17 62.6 40 3.3 37.9 0
14:08 1016 30 845 24.95 17.2 63 38 3 37.4 0
14:09 1016 30 845 24.95 17.3 63.2 38 2.8 37 0
14:10 1016 30 845 24.95 17.3 63.1 38 2.8 37 0
14:11 1016 30 845 24.95 17.2 63 35 1.6 34.8 0
14:12 1016 30 845 24.95 17 62.6 39 3.2 37.7 0
14:13 1016 30 845 24.95 16.9 62.5 36 1.8 35.3 0
14:14 1016 30 845 24.95 16.8 62.3 38 2.4 36.4 0
14:15 1016 30 845 24.95 16.8 62.3 40 3.1 37.6 0
14:16 1016 30 845 24.95 17 62.6 40 3.5 38.3 0
14:17 1016 30 845 24.95 17.1 62.8 37 2.4 36.3 0
14:18 1016 30 845 24.95 17 62.7 37 2.4 36.2 0
14:19 1016 30 845 24.95 17 62.5 40 3.2 37.8 0
14:20 1016 30 845 24.95 17 62.6 40 3.4 38 0
14:21 1016 30 845 24.95 17 62.5 39 2.9 37.2 0
14:22 1016 30 845 24.95 16.7 62.1 38 2.4 36.3 0
14:23 1016 30 845 24.95 16.6 61.9 36 1.7 35 0
14:24 1016 30 845 24.95 16.6 61.9 38 2.3 36.2 0
14:25 1016 30 845 24.95 16.6 62 38 2.5 36.5 0
14:26 1016 30 845 24.95 16.7 62 41 3.4 38.1 0
14:27 1016 30 845 24.95 16.7 62.1 39 2.6 36.8 0
14:28 1016 30 845 24.95 16.7 62.1 37 2.1 35.9 0
14:29 1016 30 845 24.95 16.7 62.1 37 2.2 35.9 0
14:30 1016 30 845 24.95 16.7 62.1 36 1.6 34.8 0
14:31 1016 30 845 24.95 16.6 61.8 37 1.9 35.5 0
14:32 1016 30 845 24.95 16.5 61.7 38 2.1 35.8 0
14:33 1016 30 845 24.95 16.6 61.9 39 2.7 36.9 0
14:34 1016 30 845 24.95 16.7 62.1 36 1.7 35.1 0
14:35 1016 30 845 24.95 16.7 62.1 39 2.7 36.8 0
14:36 1016 30 845 24.95 16.7 62.1 36 1.7 35 0
14:37 1016 30 845 24.95 16.7 62.1 43 4.1 39.5 0
14:38 1016 30 845 24.95 16.8 62.3 39 2.8 37.1 0
14:39 1016 30 845 24.95 16.8 62.3 36 2 35.5 0
14:40 1016 30 845 24.95 16.8 62.3 39 2.8 37.1 0
14:41 1016 30 845 24.95 16.8 62.2 38 2.4 36.3 0
14:42 1016 30 845 24.95 16.8 62.3 44 4.7 40.5 0
14:43 1016 30 845 24.95 17.1 62.8 39 3.2 37.7 0
14:44 1016 30 845 24.95 17.2 62.9 38 2.8 37 0
14:45 1016 30 845 24.95 17.2 62.9 39 3.1 37.5 0
14:46 1016 30 845 24.95 17.1 62.8 36 2.2 35.9 0
14:47 1016 30 845 24.95 17 62.7 37 2.4 36.4 0
14:48 1016 30 845 24.95 16.9 62.5 37 2.3 36.1 0
14:49 1016 30 845 24.95 16.8 62.2 36 1.7 35.1 0
14:50 1016 30 845 24.95 16.6 61.9 36 1.5 34.8 0
14:51 1016 30 845 24.95 16.5 61.7 41 3.2 37.8 0
14:52 1016 30 845 24.95 16.3 61.4 40 2.9 37.3 0
14:53 1016 30 845 24.95 16.1 61 38 1.7 35.1 0
14:54 1016 30 845 24.95 16 60.8 39 2.1 35.8 0
14:55 1016 30 845 24.95 16.2 61.1 42 3.2 37.8 0
14:56 1016 30 845 24.95 16.4 61.6 39 2.6 36.7 0
14:57 1016 30 845 24.95 16.6 61.8 40 2.9 37.2 0
14:58 1016 30 845 24.95 16.4 61.6 39 2.4 36.4 0
14:59 1016 30 845 24.95 16.2 61.2 40 2.8 37.1 0
15:00 1016 30 845 24.95 16 60.8 39 2.2 36 0
15:01 1016 30 845 24.95 15.8 60.5 39 2 35.6 0
15:02 1016 30 845 24.95 15.8 60.4 42 3.1 37.6 0
15:03 1016 30 846 24.98 16 60.7 43 3.4 38.1 0
15:04 1016 30 845 24.95 16.2 61.2 40 2.5 36.6 0
15:05 1016 30 845 24.95 16.4 61.5 40 2.8 37.1 0
15:06 1016 30 845 24.95 16.4 61.4 40 2.7 36.8 0
15:07 1016 30 846 24.98 16.2 61.2 40 2.9 37.2 0
15:08 1016 30 846 24.98 16.3 61.3 42 3.4 38.1 0
15:09 1016 30 846 24.98 16.4 61.5 40 2.8 37 0
15:10 1016 30 846 24.98 16.6 61.8 38 2.2 36 0
15:11 1016 30 846 24.98 16.7 62.1 38 2.5 36.5 0
15:12 1016 30 845 24.95 16.8 62.3 40 3.3 37.9 0
15:13 1016 30 845 24.95 17 62.5 39 2.9 37.1 0
15:14 1016 30 845 24.95 17 62.6 39 2.9 37.3 0
15:15 1016 30 845 24.95 17.1 62.9 37 2.4 36.3 0
15:16 1016 30 845 24.95 17.2 63 37 2.6 36.6 0
15:17 1016 30 845 24.95 17.3 63.2 38 2.8 37.1 0
15:18 1016 30 845 24.95 17.3 63.1 38 2.9 37.3 0
15:19 1016 30 845 24.95 17.3 63.2 39 3.2 37.8 0
15:20 1016 30 845 24.95 17.4 63.3 39 3.6 38.5 0
15:21 1016 30 845 24.95 17.5 63.4 39 3.3 38 0
15:22 1016 30 845 24.95 17.6 63.6 36 2.5 36.5 0
15:23 1016 30 845 24.95 17.4 63.4 39 3.3 37.9 0
15:24 1016 30 845 24.95 17.3 63.1 39 3.4 38 0
15:25 1016 30 846 24.98 17.2 63 36 2.2 36 0
15:26 1016 30 845 24.95 17.1 62.7 36 2 35.6 0
15:27 1016 30 845 24.95 17 62.6 37 2.2 35.9 0
15:28 1016 30 845 24.95 16.9 62.5 37 2.3 36.1 0
15:29 1016 30 845 24.95 16.9 62.4 37 2.3 36.2 0
15:30 1016 30 845 24.95 16.8 62.2 38 2.5 36.5 0
15:31 1016 30 845 24.95 16.7 62 39 2.9 37.3 0
15:32 1016 30 846 24.98 16.6 61.9 39 2.9 37.1 0
15:33 1016 30 846 24.98 16.4 61.6 42 3.4 38.2 0
15:34 1016 30 846 24.98 16.3 61.3 39 2.6 36.6 0
15:35 1016 30 846 24.98 16.2 61.1 40 2.8 37 0
15:36 1016 30 846 24.98 15.9 60.7 41 2.8 37 0
15:37 1016 30 846 24.98 15.7 60.2 42 3 37.3 0
15:38 1016 30 846 24.98 15.5 60 42 2.6 36.7 0
15:39 1016 30 846 24.98 15.4 59.7 43 3.1 37.5 0
15:40 1016 30 846 24.98 15.4 59.6 44 3.1 37.6 0
15:41 1016 30 846 24.98 15.4 59.7 43 3 37.5 0
15:42 1016 30 846 24.98 15.5 59.8 43 3 37.4 0
15:43 1016 30 846 24.98 15.5 59.9 43 3.1 37.7 0
15:44 1016 30 846 24.98 15.4 59.8 44 3.3 37.9 0
15:45 1016 30 846 24.98 15.3 59.6 43 2.8 37 0
15:46 1016 30 846 24.98 15.1 59.3 43 2.8 37 0
15:47 1016 30 846 24.98 15 59 45 3.2 37.8 0
15:48 1016 30 846 24.98 15 59 44 3 37.3 0
15:49 1017 30.03 846 24.98 15 59 45 3.3 37.9 0
15:50 1017 30.03 846 24.98 15 58.9 44 3 37.5 0
15:51 1017 30.03 846 24.98 14.9 58.9 44 2.9 37.3 0
15:52 1017 30.03 846 24.98 14.9 58.8 45 3.2 37.7 0
15:53 1017 30.03 846 24.98 14.8 58.7 45 3.1 37.7 0
15:54 1017 30.03 846 24.98 14.8 58.7 46 3.4 38.2 0
15:55 1017 30.03 846 24.98 14.9 58.7 43 2.6 36.7 0
15:56 1017 30.03 846 24.98 15 58.9 44 3 37.4 0
15:57 1017 30.03 846 24.98 15.1 59.2 44 3 37.5 0
15:58 1017 30.03 846 24.98 15.3 59.5 43 2.8 37 0
15:59 1017 30.03 846 24.98 15.4 59.7 43 3 37.3 0
16:00 1017 30.03 846 24.98 15.4 59.6 43 2.9 37.2 0
16:01 1017 30.03 846 24.98 15.2 59.3 44 3.1 37.5 0
16:02 1017 30.03 846 24.98 15 58.9 45 3.3 37.9 0
16:03 1017 30.03 846 24.98 14.9 58.7 45 3.3 37.9 0
16:04 1017 30.03 846 24.98 14.9 58.8 46 3.6 38.4 0
16:05 1017 30.03 846 24.98 15 59 46 3.6 38.5 0
16:06 1017 30.03 846 24.98 15.2 59.4 45 3.4 38.1 0
16:07 1017 30.03 846 24.98 15.4 59.7 44 3.5 38.2 0
16:08 1017 30.03 846 24.98 15.4 59.7 45 3.7 38.6 0
16:09 1017 30.03 846 24.98 15.4 59.7 43 3.1 37.5 0
16:10 1017 30.03 846 24.98 15.2 59.4 45 3.4 38.2 0
16:11 1017 30.03 846 24.98 15.1 59.1 45 3.4 38.1 0
16:12 1017 30.03 846 24.98 15 58.9 44 3 37.5 0
16:13 1017 30.03 846 24.98 15 58.9 44 2.9 37.2 0
16:14 1017 30.03 846 24.98 14.9 58.9 44 2.8 37 0
16:15 1017 30.03 846 24.98 14.9 58.9 45 3.3 38 0
16:16 1017 30.03 846 24.98 14.9 58.9 46 3.5 38.4 0
16:17 1017 30.03 846 24.98 15 58.9 45 3.3 37.9 0
16:18 1017 30.03 846 24.98 15 59 47 3.7 38.7 0
16:19 1017 30.03 846 24.98 15 59.1 45 3.3 37.9 0
16:20 1017 30.03 846 24.98 15.1 59.2 45 3.5 38.3 0
16:21 1017 30.03 846 24.98 15.2 59.3 44 3.1 37.6 0
16:22 1017 30.03 846 24.98 15.1 59.2 44 3.1 37.5 0
16:23 1017 30.03 846 24.98 14.9 58.8 44 2.9 37.2 0
16:24 1017 30.03 846 24.98 14.7 58.5 47 3.5 38.3 0
16:25 1017 30.03 846 24.98 14.7 58.4 45 3 37.5 0
16:26 1017 30.03 846 24.98 14.6 58.2 45 2.9 37.3 0
16:27 1017 30.03 846 24.98 14.5 58.1 46 3.1 37.5 0
16:28 1017 30.03 846 24.98 14.4 57.9 46 3.1 37.6 0
16:29 1017 30.03 846 24.98 14.4 57.8 47 3.2 37.8 0
16:30 1017 30.03 846 24.98 14.3 57.8 47 3.4 38 0
16:31 1017 30.03 847 25.01 14.4 57.9 46 3 37.4 0
16:32 1017 30.03 847 25.01 14.5 58.1 48 3.6 38.5 0
16:33 1017 30.03 847 25.01 14.7 58.5 44 2.8 37.1 0
16:34 1017 30.03 847 25.01 14.9 58.8 45 3.2 37.8 0
16:35 1017 30.03 847 25.01 15 58.9 45 3.3 37.9 0
16:36 1017 30.03 847 25.01 15.1 59.2 45 3.2 37.8 0
16:37 1017 30.03 847 25.01 15.3 59.5 43 3 37.4 0
16:38 1017 30.03 847 25.01 15.3 59.5 43 3 37.4 0
16:39 1017 30.03 847 25.01 15.2 59.4 47 4.2 39.5 0
16:40 1017 30.03 847 25.01 15.3 59.5 45 3.5 38.2 0
16:41 1017 30.03 847 25.01 15.2 59.4 44 3.2 37.8 0
16:42 1017 30.03 847 25.01 15 59 43 2.8 37 0
16:43 1017 30.03 847 25.01 14.7 58.5 47 3.7 38.6 0
16:44 1017 30.03 847 25.01 14.6 58.2 48 3.6 38.5 0
16:45 1017 30.03 847 25.01 14.4 57.9 46 3.2 37.7 0
16:46 1017 30.03 847 25.01 14.3 57.8 46 3.1 37.5 0
16:47 1017 30.03 847 25.01 14.3 57.8 47 3.4 38.1 0
16:48 1018 30.06 847 25.01 14.3 57.7 47 3.3 38 0
16:49 1018 30.06 847 25.01 14.2 57.6 48 3.3 38 0
16:50 1018 30.06 847 25.01 14.2 57.5 47 3.1 37.6 0
16:51 1018 30.06 847 25.01 14.1 57.3 46 2.7 36.9 0
16:52 1018 30.06 847 25.01 14 57.2 48 3.2 37.7 0
16:53 1018 30.06 847 25.01 14 57.1 47 2.8 37.1 0
16:54 1018 30.06 847 25.01 14 57.1 47 2.8 37.1 0
16:55 1018 30.06 847 25.01 14 57.2 48 3.1 37.6 0
16:56 1018 30.06 847 25.01 14 57.2 47 2.9 37.2 0
16:57 1018 30.06 847 25.01 13.9 57.1 49 3.3 38 0
16:58 1018 30.06 847 25.01 13.9 57 47 2.8 37.1 0
16:59 1018 30.06 847 25.01 13.8 56.8 47 2.9 37.2 0
17:00 1018 30.06 847 25.01 13.7 56.6 47 2.8 37 0
17:01 1018 30.06 847 25.01 13.7 56.6 47 2.7 36.9 0
17:02 1018 30.06 847 25.01 13.7 56.6 49 3.4 38 0
17:03 1018 30.06 847 25.01 13.6 56.5 48 3 37.3 0
17:04 1018 30.06 847 25.01 13.5 56.4 49 3.1 37.5 0
17:05 1018 30.06 847 25.01 13.5 56.2 48 2.9 37.1 0
17:06 1018 30.06 847 25.01 13.5 56.2 50 3.2 37.7 0
17:07 1018 30.06 847 25.01 13.4 56.1 48 2.6 36.6 0
17:08 1018 30.06 847 25.01 13.4 56.1 50 3.2 37.7 0
17:09 1018 30.06 847 25.01 13.4 56.1 48 2.8 37 0
17:10 1018 30.06 847 25.01 13.4 56.1 48 2.7 36.9 0
17:11 1018 30.06 847 25.01 13.4 56 49 2.8 37.1 0
17:12 1018 30.06 847 25.01 13.4 56 48 2.8 37 0
17:13 1018 30.06 847 25.01 13.3 56 49 2.8 37 0
17:14 1018 30.06 847 25.01 13.4 56 48 2.7 36.9 0
17:15 1018 30.06 847 25.01 13.3 56 49 2.8 37 0
17:16 1018 30.06 847 25.01 13.3 56 47 2.3 36.2 0
17:17 1018 30.06 847 25.01 13.3 55.9 49 2.9 37.2 0
17:18 1018 30.06 847 25.01 13.2 55.8 48 2.5 36.5 0
17:19 1018 30.06 847 25.01 13.2 55.7 49 2.8 37.1 0
17:20 1018 30.06 847 25.01 13.1 55.6 49 2.6 36.8 0
17:21 1018 30.06 847 25.01 13.1 55.6 50 2.9 37.2 0
17:22 1018 30.06 847 25.01 13.1 55.5 48 2.5 36.5 0
17:23 1018 30.06 847 25.01 13.1 55.5 51 3.1 37.6 0
17:24 1018 30.06 847 25.01 13 55.4 49 2.6 36.7 0
17:25 1018 30.06 847 25.01 13.1 55.5 49 2.8 37 0
17:26 1018 30.06 847 25.01 13 55.5 49 2.7 36.8 0
17:27 1018 30.06 847 25.01 13 55.5 49 2.7 36.9 0
17:28 1018 30.06 847 25.01 13 55.4 50 3 37.4 0
17:29 1018 30.06 847 25.01 13 55.4 51 3.3 37.9 0
17:30 1018 30.06 847 25.01 12.9 55.3 51 3.2 37.7 0
17:31 1018 30.06 847 25.01 12.9 55.2 51 3.1 37.6 0
17:32 1018 30.06 847 25.01 12.9 55.1 50 2.9 37.2 0
17:33 1018 30.06 847 25.01 12.8 55 52 3.2 37.7 0
17:34 1018 30.06 847 25.01 12.7 54.8 52 3.2 37.7 0
17:35 1018 30.06 847 25.01 12.7 54.8 53 3.5 38.2 0
17:36 1018 30.06 847 25.01 12.5 54.6 53 3.4 38.1 0
17:37 1018 30.06 847 25.01 12.6 54.6 53 3.4 38.1 0
17:38 1018 30.06 847 25.01 12.6 54.6 52 3.2 37.7 0
17:39 1018 30.06 847 25.01 12.5 54.5 54 3.5 38.4 0
17:40 1018 30.06 847 25.01 12.6 54.6 54 3.7 38.6 0
17:41 1018 30.06 848 25.04 12.5 54.5 55 3.7 38.7 0
17:42 1018 30.06 848 25.04 12.5 54.5 55 3.7 38.6 0
17:43 1018 30.06 848 25.04 12.5 54.5 55 3.7 38.7 0
17:44 1018 30.06 848 25.04 12.4 54.4 55 3.7 38.7 0
17:45 1018 30.06 848 25.04 12.4 54.3 55 3.7 38.6 0
17:46 1018 30.06 848 25.04 12.4 54.3 57 4.3 39.7 0
17:47 1018 30.06 848 25.04 12.3 54.2 56 3.9 39.1 0
17:48 1018 30.06 848 25.04 12.3 54.1 55 3.6 38.4 0
17:49 1018 30.06 848 25.04 12.1 53.8 58 4.1 39.4 0
17:50 1018 30.06 848 25.04 12 53.7 59 4.3 39.7 0
17:51 1018 30.06 848 25.04 11.9 53.5 59 4.2 39.5 0
17:52 1018 30.06 848 25.04 11.8 53.3 58 3.8 38.9 0
17:53 1018 30.06 848 25.04 11.8 53.2 59 4.1 39.4 0
17:54 1019 30.09 848 25.04 11.7 53 59 4.1 39.3 0
17:55 1019 30.09 848 25.04 11.7 53 60 4.1 39.5 0
17:56 1019 30.09 848 25.04 11.6 52.9 61 4.4 39.9 0
17:57 1019 30.09 848 25.04 11.6 52.8 61 4.4 40 0
17:58 1019 30.09 848 25.04 11.5 52.7 61 4.2 39.5 0
17:59 1019 30.09 848 25.04 11.5 52.6 61 4.3 39.8 0
18:00 1019 30.09 848 25.04 11.4 52.6 62 4.4 39.9 0
18:01 1019 30.09 848 25.04 11.4 52.4 63 4.5 40.2 0
18:02 1019 30.09 848 25.04 11.3 52.4 63 4.5 40.2 0
18:03 1019 30.09 848 25.04 11.3 52.3 62 4.3 39.8 0
18:04 1019 30.09 848 25.04 11.3 52.3 60 4 39.1 0
18:05 1019 30.09 848 25.04 11.4 52.4 61 4.2 39.6 0
18:06 1019 30.09 848 25.04 11.3 52.4 63 4.6 40.2 0
18:07 1019 30.09 848 25.04 11.3 52.3 63 4.7 40.4 0
18:08 1019 30.09 848 25.04 11.3 52.3 63 4.4 40 0
18:09 1019 30.09 848 25.04 11.3 52.3 62 4.4 39.9 0
18:10 1019 30.09 848 25.04 11.3 52.3 61 4.1 39.4 0
18:11 1019 30.09 848 25.04 11.3 52.4 61 4.1 39.4 0
18:12 1019 30.09 848 25.04 11.4 52.5 60 3.9 39 0
18:13 1019 30.09 848 25.04 11.4 52.5 60 3.8 38.9 0
18:14 1019 30.09 848 25.04 11.4 52.5 61 4.2 39.6 0
18:15 1019 30.09 848 25.04 11.4 52.5 61 4.3 39.7 0
18:16 1019 30.09 848 25.04 11.4 52.5 61 4.1 39.4 0
18:17 1019 30.09 848 25.04 11.4 52.5 61 4.3 39.8 0
18:18 1019 30.09 848 25.04 11.4 52.4 59 3.8 38.8 0
18:19 1019 30.09 848 25.04 11.4 52.5 59 3.8 38.8 0
18:20 1019 30.09 848 25.04 11.4 52.4 59 3.7 38.7 0
18:21 1019 30.09 848 25.04 11.4 52.4 59 3.7 38.6 0
18:22 1019 30.09 848 25.04 11.3 52.4 60 3.9 39 0
18:23 1019 30.09 848 25.04 11.3 52.3 59 3.5 38.4 0
18:24 1019 30.09 848 25.04 11.3 52.3 59 3.7 38.6 0
18:25 1019 30.09 848 25.04 11.3 52.3 60 3.8 38.8 0
18:26 1019 30.09 848 25.04 11.3 52.3 60 3.8 38.9 0
18:27 1019 30.09 848 25.04 11.2 52.2 60 3.9 38.9 0
18:28 1019 30.09 848 25.04 11.2 52.2 59 3.6 38.6 0
18:29 1019 30.09 848 25.04 11.2 52.2 60 3.8 38.9 0
18:30 1019 30.09 848 25.04 11.2 52.2 61 4 39.3 0
18:31 1019 30.09 848 25.04 11.2 52.1 61 4 39.3 0
18:32 1019 30.09 848 25.04 11.1 52 61 3.9 39 0
18:33 1019 30.09 848 25.04 11.1 52 61 3.9 39.1 0
18:34 1019 30.09 848 25.04 11.1 52 61 4 39.2 0
18:35 1019 30.09 848 25.04 11.1 52 62 4.1 39.4 0
18:36 1019 30.09 848 25.04 11 51.8 63 4.3 39.8 0
18:37 1019 30.09 848 25.04 10.9 51.6 64 4.4 40 0
18:38 1019 30.09 848 25.04 10.8 51.4 65 4.5 40.2 0
18:39 1019 30.09 848 25.04 10.6 51.1 66 4.5 40.1 0
18:40 1019 30.09 848 25.04 10.5 51 67 4.6 40.4 0
18:41 1019 30.09 848 25.04 10.4 50.7 67 4.6 40.2 0
18:42 1019 30.09 848 25.04 10.3 50.6 68 4.7 40.4 0
18:43 1019 30.09 848 25.04 10.2 50.4 69 4.7 40.5 0
18:44 1019 30.09 848 25.04 10.1 50.2 69 4.7 40.4 0
18:45 1019 30.09 848 25.04 10 50 69 4.6 40.4 0
18:46 1019 30.09 848 25.04 9.9 49.9 70 4.7 40.5 0
18:47 1019 30.09 848 25.04 9.9 49.8 70 4.8 40.6 0
18:48 1019 30.09 848 25.04 9.8 49.7 71 4.8 40.7 0
18:49 1019 30.09 848 25.04 9.7 49.5 71 4.8 40.7 0
18:50 1019 30.09 848 25.04 9.6 49.4 72 4.8 40.7 0
18:51 1019 30.09 848 25.04 9.6 49.2 72 4.8 40.7 0
18:52 1019 30.09 849 25.07 9.5 49.1 73 4.8 40.7 0
18:53 1019 30.09 848 25.04 9.5 49 73 4.9 40.8 0
18:54 1019 30.09 849 25.07 9.4 48.9 74 5 40.9 0
18:55 1019 30.09 849 25.07 9.4 48.9 74 5 41 0
18:56 1019 30.09 849 25.07 9.4 48.9 74 5 41 0
18:57 1019 30.09 849 25.07 9.4 48.8 74 5 41 0
18:58 1019 30.09 849 25.07 9.3 48.8 74 5 41 0
18:59 1019 30.09 849 25.07 9.3 48.8 75 5.1 41.1 0
19:00 1019 30.09 849 25.07 9.3 48.8 75 5 41.1 0
19:01 1019 30.09 849 25.07 9.3 48.7 74 5 41 0
19:02 1019 30.09 849 25.07 9.3 48.7 74 5 41 0
19:03 1019 30.09 849 25.07 9.3 48.7 75 5 41.1 0
19:04 1019 30.09 849 25.07 9.2 48.6 75 5.1 41.2 0
19:05 1019 30.09 849 25.07 9.2 48.6 75 5.1 41.2 0
19:06 1019 30.09 849 25.07 9.2 48.5 75 5.1 41.1 0
19:07 1019 30.09 849 25.07 9.1 48.4 76 5.1 41.3 0
19:08 1019 30.09 849 25.07 9.1 48.3 76 5.1 41.2 0
19:09 1019 30.09 849 25.07 9.1 48.4 76 5.1 41.3 0
19:10 1019 30.09 849 25.07 9.1 48.4 76 5.1 41.2 0
19:11 1019 30.09 849 25.07 9.1 48.3 76 5.2 41.3 0
19:12 1019 30.09 849 25.07 9.1 48.3 76 5.1 41.2 0
19:13 1019 30.09 849 25.07 9 48.3 76 5.1 41.2 0
19:14 1019 30.09 849 25.07 9 48.3 77 5.2 41.3 0
19:15 1019 30.09 849 25.07 9 48.3 76 5.1 41.2 0
19:16 1019 30.09 849 25.07 9 48.2 77 5.1 41.3 0
19:17 1019 30.09 848 25.04 9 48.3 77 5.1 41.3 0
19:18 1019 30.09 848 25.04 9 48.3 76 5.1 41.1 0
19:19 1019 30.09 848 25.04 9 48.2 76 5 41 0
19:20 1019 30.09 849 25.07 9 48.3 76 5.1 41.1 0
19:21 1019 30.09 849 25.07 9 48.2 76 5.1 41.2 0
19:22 1019 30.09 849 25.07 9 48.3 76 5.1 41.2 0
19:23 1019 30.09 849 25.07 9 48.2 77 5.1 41.2 0
19:24 1019 30.09 849 25.07 9 48.2 76 5.1 41.1 0
19:25 1019 30.09 848 25.04 9 48.2 76 5.1 41.2 0
19:26 1019 30.09 849 25.07 9 48.3 76 5.1 41.2 0
19:27 1019 30.09 848 25.04 9 48.2 76 5 41 0
19:28 1019 30.09 848 25.04 9 48.2 76 4.9 40.9 0
19:29 1019 30.09 848 25.04 9.1 48.3 75 5 40.9 0
19:30 1019 30.09 848 25.04 9.1 48.4 75 5 41 0
19:31 1019 30.09 848 25.04 9.1 48.4 76 5 41 0
19:32 1019 30.09 848 25.04 9.1 48.4 75 5 41 0
19:33 1019 30.09 848 25.04 9.1 48.4 76 5.1 41.1 0
19:34 1019 30.09 848 25.04 9.1 48.4 76 5.1 41.1 0
19:35 1019 30.09 848 25.04 9.1 48.3 76 5 41.1 0
19:36 1019 30.09 848 25.04 9.1 48.4 75 5 41 0
19:37 1019 30.09 848 25.04 9.1 48.4 75 5 41 0
19:38 1019 30.09 848 25.04 9.1 48.3 76 5.1 41.1 0
19:39 1019 30.09 848 25.04 9.1 48.4 76 5.1 41.2 0
19:40 1019 30.09 848 25.04 9.1 48.4 76 5.2 41.4 0
19:41 1019 30.09 848 25.04 9.1 48.3 75 5 41 0
19:42 1019 30.09 848 25.04 9.1 48.3 76 5.1 41.2 0
19:43 1019 30.09 848 25.04 9.1 48.3 77 5.2 41.4 0
19:44 1019 30.09 848 25.04 9 48.2 77 5.3 41.5 0
19:45 1019 30.09 848 25.04 8.9 48.1 77 5.2 41.4 0
19:46 1019 30.09 848 25.04 8.9 48.1 78 5.3 41.5 0
19:47 1019 30.09 848 25.04 8.9 48.1 78 5.3 41.5 0
19:48 1019 30.09 848 25.04 8.9 48 77 5.2 41.3 0
19:49 1019 30.09 848 25.04 8.9 48 77 5.1 41.2 0
19:50 1019 30.09 848 25.04 8.9 48.1 78 5.2 41.4 0
19:51 1019 30.09 848 25.04 8.9 48 77 5.2 41.4 0
19:52 1019 30.09 848 25.04 8.9 48.1 78 5.3 41.5 0
19:53 1019 30.09 848 25.04 8.9 48.1 78 5.3 41.5 0
19:54 1019 30.09 848 25.04 8.9 48 77 5.2 41.3 0
19:55 1019 30.09 848 25.04 8.9 48 77 5.2 41.3 0
19:56 1019 30.09 848 25.04 8.9 48.1 77 5.1 41.2 0
19:57 1019 30.09 848 25.04 9 48.2 77 5.1 41.2 0
19:58 1019 30.09 848 25.04 9 48.3 76 5.1 41.2 0
19:59 1019 30.09 848 25.04 9 48.3 76 5 41.1 0
20:00 1019 30.09 848 25.04 9.1 48.4 76 5.1 41.2 0
20:01 1019 30.09 848 25.04 9.1 48.3 76 5.1 41.1 0
20:02 1019 30.09 848 25.04 9.1 48.3 76 5.2 41.3 0
20:03 1019 30.09 848 25.04 9 48.3 77 5.3 41.5 0
20:04 1019 30.09 848 25.04 9 48.1 77 5.2 41.4 0
20:05 1019 30.09 848 25.04 8.9 48 78 5.2 41.4 0
20:06 1019 30.09 848 25.04 8.9 48 78 5.2 41.3 0
20:07 1019 30.09 848 25.04 8.8 47.8 78 5.1 41.2 0
20:08 1019 30.09 848 25.04 8.8 47.8 78 5.1 41.2 0
20:09 1019 30.09 848 25.04 8.7 47.7 78 5.1 41.2 0
20:10 1019 30.09 848 25.04 8.7 47.6 78 5.1 41.1 0
20:11 1019 30.09 848 25.04 8.6 47.4 78 5 41.1 0
20:12 1019 30.09 848 25.04 8.5 47.2 79 5 41 0
20:13 1019 30.09 848 25.04 8.4 47.2 79 5.1 41.1 0
20:14 1019 30.09 848 25.04 8.3 47 79 5 41 0
20:15 1019 30.09 848 25.04 8.3 46.9 80 5 41 0
20:16 1019 30.09 848 25.04 8.3 46.9 80 5 41 0
20:17 1019 30.09 848 25.04 8.3 46.9 80 5 41 0
20:18 1019 30.09 848 25.04 8.2 46.8 80 5 41 0
20:19 1019 30.09 848 25.04 8.3 46.9 80 5 41 0
20:20 1019 30.09 848 25.04 8.2 46.8 80 5 40.9 0
20:21 1019 30.09 848 25.04 8.3 46.9 79 4.9 40.9 0
20:22 1019 30.09 848 25.04 8.3 46.9 79 4.9 40.9 0
20:23 1019 30.09 848 25.04 8.3 47 79 5 40.9 0
20:24 1019 30.09 848 25.04 8.3 46.9 79 4.9 40.8 0
20:25 1019 30.09 848 25.04 8.3 46.9 79 4.9 40.8 0
20:26 1019 30.09 848 25.04 8.3 46.9 79 4.9 40.8 0
20:27 1019 30.09 848 25.04 8.3 46.9 79 4.9 40.8 0
20:28 1019 30.09 848 25.04 8.3 46.9 79 4.8 40.7 0
20:29 1019 30.09 848 25.04 8.3 46.9 79 4.8 40.6 0
20:30 1019 30.09 848 25.04 8.3 47 78 4.8 40.7 0
20:31 1019 30.09 848 25.04 8.3 47 78 4.8 40.6 0
20:32 1019 30.09 848 25.04 8.4 47.1 78 4.8 40.6 0
20:33 1019 30.09 848 25.04 8.3 47 78 4.7 40.5 0
20:34 1019 30.09 848 25.04 8.3 47 78 4.7 40.5 0
20:35 1019 30.09 848 25.04 8.4 47 78 4.7 40.5 0
20:36 1019 30.09 848 25.04 8.4 47 78 4.7 40.5 0
20:37 1019 30.09 848 25.04 8.3 47 78 4.7 40.4 0
20:38 1019 30.09 848 25.04 8.3 47 78 4.7 40.5 0
20:39 1019 30.09 848 25.04 8.3 47 78 4.7 40.5 0
20:40 1019 30.09 848 25.04 8.3 47 78 4.7 40.5 0
20:41 1019 30.09 848 25.04 8.3 47 78 4.7 40.4 0
20:42 1019 30.09 848 25.04 8.3 47 78 4.7 40.4 0
20:43 1019 30.09 848 25.04 8.3 47 77 4.6 40.3 0
20:44 1019 30.09 848 25.04 8.3 47 77 4.6 40.4 0
20:45 1019 30.09 848 25.04 8.4 47.1 77 4.7 40.4 0
20:46 1019 30.09 848 25.04 8.4 47.2 77 4.6 40.3 0
20:47 1019 30.09 848 25.04 8.5 47.2 77 4.6 40.3 0
20:48 1019 30.09 848 25.04 8.5 47.2 77 4.6 40.3 0
20:49 1019 30.09 848 25.04 8.4 47.2 77 4.6 40.3 0
20:50 1019 30.09 848 25.04 8.4 47.1 77 4.6 40.2 0
20:51 1019 30.09 848 25.04 8.4 47.1 77 4.5 40.2 0
20:52 1019 30.09 848 25.04 8.4 47.1 77 4.5 40.1 0
20:53 1019 30.09 848 25.04 8.3 46.9 77 4.5 40 0
20:54 1019 30.09 848 25.04 8.3 46.9 77 4.5 40.1 0
20:55 1019 30.09 848 25.04 8.2 46.8 77 4.5 40 0
20:56 1019 30.09 848 25.04 8.2 46.8 77 4.5 40 0
20:57 1019 30.09 848 25.04 8.2 46.8 77 4.5 40 0
20:58 1019 30.09 848 25.04 8.2 46.7 77 4.4 40 0
20:59 1019 30.09 848 25.04 8.1 46.6 77 4.4 39.9 0
21:00 1019 30.09 848 25.04 8.1 46.5 78 4.4 39.9 0
21:01 1019 30.09 848 25.04 8 46.4 78 4.4 39.9 0
21:02 1019 30.09 848 25.04 7.9 46.3 78 4.4 39.9 0
21:03 1019 30.09 848 25.04 7.9 46.1 78 4.3 39.8 0
21:04 1019 30.09 848 25.04 7.8 46.1 79 4.4 39.9 0
21:05 1019 30.09 848 25.04 7.8 46 79 4.3 39.8 0
21:06 1019 30.09 848 25.04 7.8 46.1 79 4.3 39.8 0
21:07 1019 30.09 848 25.04 7.8 46.1 78 4.3 39.8 0
21:08 1019 30.09 848 25.04 7.9 46.2 78 4.4 39.8 0
21:09 1019 30.09 848 25.04 7.9 46.3 78 4.4 39.9 0
21:10 1019 30.09 848 25.04 8.1 46.5 78 4.4 39.9 0
21:11 1019 30.09 848 25.04 8.2 46.7 77 4.4 40 0
21:12 1019 30.09 848 25.04 8.2 46.8 77 4.5 40 0
21:13 1019 30.09 848 25.04 8.2 46.8 77 4.5 40 0
21:14 1019 30.09 848 25.04 8.3 46.9 77 4.4 40 0
21:15 1019 30.09 848 25.04 8.3 46.9 77 4.5 40 0
21:16 1019 30.09 848 25.04 8.2 46.8 77 4.5 40 0
21:17 1019 30.09 848 25.04 8.2 46.8 77 4.5 40.1 0
21:18 1019 30.09 848 25.04 8.2 46.8 77 4.5 40 0
21:19 1019 30.09 848 25.04 8.2 46.7 77 4.5 40.1 0
21:20 1019 30.09 848 25.04 8.2 46.7 77 4.5 40.1 0
21:21 1019 30.09 848 25.04 8.1 46.6 78 4.4 40 0
21:22 1019 30.09 848 25.04 8 46.4 78 4.4 40 0
21:23 1019 30.09 848 25.04 8 46.3 78 4.4 40 0
21:24 1019 30.09 848 25.04 7.9 46.2 79 4.5 40 0
21:25 1019 30.09 848 25.04 7.9 46.1 79 4.5 40 0
21:26 1019 30.09 848 25.04 7.8 46.1 79 4.5 40.1 0
21:27 1019 30.09 848 25.04 7.8 46 80 4.4 40 0
21:28 1019 30.09 848 25.04 7.8 46 80 4.5 40.1 0
21:29 1019 30.09 848 25.04 7.7 45.9 80 4.5 40.1 0
21:30 1019 30.09 848 25.04 7.7 45.9 80 4.5 40 0
21:31 1019 30.09 848 25.04 7.7 45.9 80 4.5 40.1 0
21:32 1019 30.09 848 25.04 7.7 45.9 80 4.5 40.1 0
21:33 1019 30.09 848 25.04 7.8 46 80 4.5 40.1 0
21:34 1019 30.09 848 25.04 7.8 46 79 4.4 40 0
21:35 1019 30.09 848 25.04 7.8 46 79 4.4 40 0
21:36 1019 30.09 848 25.04 7.8 46 79 4.4 40 0
21:37 1019 30.09 848 25.04 7.8 46.1 79 4.4 39.9 0
21:38 1019 30.09 848 25.04 7.8 46 79 4.4 39.9 0
21:39 1019 30.09 848 25.04 7.9 46.2 79 4.4 40 0
21:40 1019 30.09 848 25.04 7.9 46.2 79 4.5 40 0
21:41 1019 30.09 848 25.04 7.9 46.2 79 4.5 40.1 0
21:42 1019 30.09 848 25.04 7.9 46.1 79 4.5 40.1 0
21:43 1019 30.09 848 25.04 7.8 46.1 80 4.6 40.2 0
21:44 1019 30.09 848 25.04 7.7 45.9 80 4.5 40.1 0
21:45 1019 30.09 848 25.04 7.7 45.8 81 4.5 40.2 0
21:46 1019 30.09 848 25.04 7.6 45.7 81 4.6 40.2 0
21:47 1019 30.09 848 25.04 7.6 45.6 81 4.5 40.2 0
21:48 1019 30.09 848 25.04 7.5 45.6 81 4.5 40.2 0
21:49 1019 30.09 848 25.04 7.5 45.5 81 4.5 40.2 0
21:50 1019 30.09 848 25.04 7.4 45.3 82 4.5 40.1 0
21:51 1019 30.09 848 25.04 7.4 45.2 82 4.5 40.1 0
21:52 1019 30.09 848 25.04 7.4 45.2 82 4.5 40.2 0
21:53 1019 30.09 848 25.04 7.3 45.1 82 4.5 40.1 0
21:54 1019 30.09 848 25.04 7.3 45.2 83 4.6 40.2 0
21:55 1019 30.09 848 25.04 7.4 45.2 83 4.6 40.3 0
21:56 1019 30.09 848 25.04 7.3 45.2 83 4.6 40.3 0
21:57 1019 30.09 848 25.04 7.3 45.2 83 4.6 40.2 0
21:58 1019 30.09 848 25.04 7.3 45.2 83 4.6 40.2 0
21:59 1019 30.09 848 25.04 7.3 45.2 83 4.6 40.2 0
22:00 1019 30.09 848 25.04 7.3 45.1 82 4.5 40.1 0
22:01 1019 30.09 848 25.04 7.4 45.2 82 4.5 40 0
22:02 1019 30.09 848 25.04 7.4 45.3 81 4.4 39.9 0
22:03 1019 30.09 848 25.04 7.5 45.5 81 4.4 39.9 0
22:04 1019 30.09 848 25.04 7.6 45.7 80 4.4 39.9 0
22:05 1019 30.09 848 25.04 7.6 45.8 80 4.4 39.9 0
22:06 1019 30.09 848 25.04 7.7 45.9 79 4.4 39.9 0
22:07 1019 30.09 848 25.04 7.8 46 79 4.4 39.9 0
22:08 1019 30.09 848 25.04 7.8 46 79 4.4 39.9 0
22:09 1019 30.09 848 25.04 7.8 46.1 79 4.4 39.9 0
22:10 1019 30.09 849 25.07 7.8 46.1 80 4.5 40.1 0
22:11 1019 30.09 849 25.07 7.8 46 80 4.6 40.2 0
22:12 1019 30.09 849 25.07 7.7 45.8 81 4.6 40.3 0
22:13 1019 30.09 849 25.07 7.7 45.8 81 4.6 40.3 0
22:14 1019 30.09 849 25.07 7.6 45.7 81 4.6 40.2 0
22:15 1019 30.09 849 25.07 7.6 45.6 81 4.5 40.1 0
22:16 1019 30.09 849 25.07 7.6 45.7 81 4.5 40.1 0
22:17 1019 30.09 849 25.07 7.7 45.8 80 4.5 40.1 0
22:18 1019 30.09 849 25.07 7.8 46 80 4.5 40 0
22:19 1019 30.09 849 25.07 7.9 46.1 79 4.4 40 0
22:20 1019 30.09 849 25.07 8 46.4 78 4.5 40.1 0
22:21 1019 30.09 849 25.07 8 46.5 78 4.5 40 0
22:22 1019 30.09 849 25.07 8 46.4 79 4.5 40.1 0
22:23 1019 30.09 849 25.07 7.9 46.2 79 4.6 40.2 0
22:24 1019 30.09 849 25.07 7.8 46 80 4.5 40.2 0
22:25 1019 30.09 849 25.07 7.7 45.8 81 4.6 40.2 0
22:26 1019 30.09 849 25.07 7.6 45.6 81 4.6 40.2 0
22:27 1019 30.09 849 25.07 7.4 45.4 82 4.6 40.2 0
22:28 1020 30.12 849 25.07 7.3 45.2 83 4.6 40.3 0
22:29 1020 30.12 849 25.07 7.3 45.1 83 4.6 40.2 0
22:30 1019 30.09 849 25.07 7.2 45 83 4.6 40.3 0
22:31 1019 30.09 849 25.07 7.2 44.9 83 4.6 40.2 0
22:32 1019 30.09 849 25.07 7.2 44.9 83 4.6 40.2 0
22:33 1020 30.12 849 25.07 7.2 44.9 83 4.6 40.2 0
22:34 1020 30.12 849 25.07 7.2 45 83 4.6 40.2 0
22:35 1020 30.12 849 25.07 7.2 44.9 83 4.5 40.2 0
22:36 1020 30.12 849 25.07 7.2 45 83 4.6 40.2 0
22:37 1020 30.12 849 25.07 7.3 45.1 83 4.5 40.1 0
22:38 1020 30.12 849 25.07 7.3 45.1 83 4.5 40.2 0
22:39 1020 30.12 849 25.07 7.3 45.2 82 4.5 40.2 0
22:40 1020 30.12 849 25.07 7.4 45.3 82 4.5 40 0
22:41 1020 30.12 849 25.07 7.5 45.4 81 4.5 40.1 0
22:42 1020 30.12 849 25.07 7.5 45.6 81 4.6 40.2 0
22:43 1020 30.12 849 25.07 7.5 45.6 81 4.6 40.2 0
22:44 1020 30.12 849 25.07 7.5 45.6 81 4.6 40.2 0
22:45 1020 30.12 849 25.07 7.5 45.6 82 4.6 40.3 0
22:46 1020 30.12 849 25.07 7.6 45.6 82 4.6 40.3 0
22:47 1020 30.12 849 25.07 7.5 45.6 82 4.6 40.3 0
22:48 1020 30.12 849 25.07 7.6 45.6 82 4.6 40.3 0
22:49 1020 30.12 849 25.07 7.6 45.6 81 4.6 40.3 0
22:50 1020 30.12 849 25.07 7.6 45.7 81 4.5 40.1 0
22:51 1020 30.12 849 25.07 7.7 45.9 80 4.5 40.1 0
22:52 1020 30.12 849 25.07 7.8 46 80 4.6 40.3 0
22:53 1020 30.12 849 25.07 7.8 46 80 4.6 40.3 0
22:54 1020 30.12 849 25.07 7.8 46 80 4.6 40.3 0
22:55 1020 30.12 849 25.07 7.8 46 80 4.6 40.2 0
22:56 1020 30.12 849 25.07 7.8 46.1 80 4.6 40.2 0
22:57 1020 30.12 849 25.07 7.9 46.1 81 4.7 40.5 0
22:58 1020 30.12 849 25.07 7.8 46 81 4.7 40.5 0
22:59 1020 30.12 849 25.07 7.8 46 81 4.7 40.5 0
23:00 1020 30.12 849 25.07 7.8 46 81 4.7 40.5 0
23:01 1020 30.12 849 25.07 7.7 45.8 81 4.6 40.3 0
23:02 1020 30.12 849 25.07 7.8 46 81 4.7 40.5 0
23:03 1020 30.12 849 25.07 7.8 46 81 4.7 40.5 0
23:04 1020 30.12 849 25.07 7.8 46 81 4.7 40.5 0
23:05 1020 30.12 849 25.07 7.8 46.1 81 4.7 40.5 0
23:06 1020 30.12 849 25.07 7.8 46.1 81 4.7 40.5 0
23:07 1020 30.12 849 25.07 7.9 46.1 80 4.7 40.4 0
23:08 1020 30.12 849 25.07 7.9 46.2 80 4.7 40.4 0
23:09 1020 30.12 849 25.07 7.9 46.3 80 4.6 40.3 0
23:10 1020 30.12 849 25.07 8 46.4 79 4.6 40.3 0
23:11 1020 30.12 849 25.07 8.1 46.5 79 4.6 40.3 0
23:12 1020 30.12 849 25.07 8.1 46.6 79 4.7 40.4 0
23:13 1020 30.12 849 25.07 8.2 46.7 79 4.7 40.5 0
23:14 1020 30.12 849 25.07 8.2 46.8 79 4.8 40.7 0
23:15 1020 30.12 849 25.07 8.2 46.8 79 4.8 40.7 0
23:16 1020 30.12 849 25.07 8.3 46.9 79 4.8 40.7 0
23:17 1020 30.12 849 25.07 8.2 46.8 79 4.8 40.6 0
23:18 1020 30.12 849 25.07 8.3 46.9 78 4.7 40.5 0
23:19 1020 30.12 849 25.07 8.3 46.9 78 4.8 40.6 0
23:20 1020 30.12 849 25.07 8.3 47 78 4.8 40.7 0
23:21 1020 30.12 849 25.07 8.4 47.1 79 4.9 40.8 0
23:22 1020 30.12 849 25.07 8.4 47 78 4.8 40.7 0
23:23 1020 30.12 849 25.07 8.4 47 78 4.8 40.6 0
23:24 1020 30.12 849 25.07 8.4 47.1 78 4.8 40.7 0
23:25 1020 30.12 849 25.07 8.4 47.1 79 4.9 40.8 0
23:26 1020 30.12 849 25.07 8.4 47 79 5 40.9 0
23:27 1020 30.12 849 25.07 8.3 47 79 4.9 40.9 0
23:28 1020 30.12 849 25.07 8.3 47 80 5 41.1 0
23:29 1020 30.12 849 25.07 8.3 47 80 5.1 41.2 0
23:30 1020 30.12 849 25.07 8.3 46.9 81 5.2 41.3 0
23:31 1020 30.12 849 25.07 8.3 46.9 82 5.3 41.6 0
23:32 1020 30.12 849 25.07 8.2 46.8 83 5.6 42 0
23:33 1020 30.12 849 25.07 8.2 46.7 82 5.3 41.6 0
23:34 1020 30.12 849 25.07 8.1 46.6 83 5.5 41.9 0
23:35 1020 30.12 849 25.07 8.1 46.6 85 5.7 42.2 0
23:36 1020 30.12 849 25.07 8.1 46.6 85 5.7 42.2 0
23:37 1020 30.12 849 25.07 8.1 46.6 83 5.5 41.8 0
23:38 1020 30.12 849 25.07 8.2 46.7 84 5.7 42.2 0
23:39 1020 30.12 849 25.07 8.3 46.9 84 5.8 42.4 0
23:40 1020 30.12 849 25.07 8.3 46.9 84 5.7 42.2 0
23:41 1020 30.12 849 25.07 8.3 47 83 5.7 42.2 0
23:42 1020 30.12 849 25.07 8.3 47 83 5.6 42.1 0
23:43 1020 30.12 849 25.07 8.4 47.1 82 5.6 42.1 0
23:44 1020 30.12 849 25.07 8.5 47.2 81 5.4 41.8 0
23:45 1020 30.12 849 25.07 8.5 47.3 80 5.3 41.5 0
23:46 1020 30.12 849 25.07 8.5 47.4 80 5.2 41.4 0
23:47 1020 30.12 849 25.07 8.6 47.4 82 5.6 42.1 0
23:48 1020 30.12 849 25.07 8.6 47.4 83 5.8 42.5 0
23:49 1020 30.12 849 25.07 8.6 47.4 83 5.8 42.4 0
23:50 1020 30.12 849 25.07 8.5 47.2 83 5.8 42.5 0
23:51 1020 30.12 849 25.07 8.4 47.2 83 5.8 42.4 0
23:52 1020 30.12 849 25.07 8.4 47 84 5.8 42.5 0
23:53 1020 30.12 849 25.07 8.4 47 85 5.9 42.6 0
23:54 1020 30.12 849 25.07 8.3 47 85 5.9 42.7 0
23:55 1020 30.12 849 25.07 8.3 46.9 85 6 42.8 0
23:56 1020 30.12 849 25.07 8.3 46.9 84 5.8 42.4 0
23:57 1020 30.12 849 25.07 8.3 46.9 84 5.8 42.5 0
23:58 1020 30.12 849 25.07 8.3 46.9 85 5.9 42.6 0
23:59 1020 30.12 849 25.07 8.3 46.9 86 6 42.8 0
24:00 1020 30.12 849 25.07 8.2 46.8 86 5.9 42.7 0